M I D A S
Marine Information and Data Acquisition System
Tripno 693 of the Zeeleeuw from 2004-04-13 07:03:55 to 2004-04-13 14:33:18
Back to CruiseResearch ActivitiesStationsMapUnderway DataData graphs

EquipmentUnitsComment
TimeDGPSUTC
LatitudeDGPSDM.mWGS84
LongitudeDGPSDM.mWGS84
TemperatureSBE03/SBE38deg celciusITS90
ConductivitySBE21S/mITS90
SalinitySBE21 Practical Salinity Units
ChlorophylAChelsea fluorimeterg/lCalibrated in Aceton
Missing or incorrect values are displayed as -999
Sea surface data collected by the RV Zeeleeuw from 2004-04-13 07:03:55 to 2004-04-13 14:33:18
                                                                                    Next 1000 lines
Time Latitude Longitude Temperature Conductivity Salinity ChlorophylA
2004-04-13 07:04:01 51°13.596 2°56.101 15.063184 4.858348 34.767158 -0.848668
2004-04-13 07:04:06 51°13.596 2°56.101 15.063184 4.858348 34.767158 -0.848668
2004-04-13 07:04:11 51°13.596 2°56.101 15.063618 4.858243 34.766311 -0.882377
2004-04-13 07:04:16 51°13.596 2°56.101 15.064096 4.858243 34.767447 -0.848668
2004-04-13 07:04:21 51°13.596 2°56.101 15.064792 4.858243 34.767447 -0.848668
2004-04-13 07:04:26 51°13.596 2°56.101 15.065183 4.858137 34.767168 -0.882377
2004-04-13 07:04:31 51°13.595 2°56.101 15.065531 4.858137 34.767168 -0.882377
2004-04-13 07:04:35 51°13.595 2°56.101 15.065531 4.858137 34.767168 -0.882377
2004-04-13 07:04:41 51°13.595 2°56.101 15.065748 4.858032 34.766889 -0.848668
2004-04-13 07:04:45 51°13.596 2°56.1 15.065183 4.858032 34.766889 -0.882377
2004-04-13 07:04:51 51°13.596 2°56.097 15.064314 4.858137 34.768305 -0.882377
2004-04-13 07:04:55 51°13.597 2°56.094 15.064096 4.857926 34.76661 -0.882377
2004-04-13 07:05:01 51°13.598 2°56.089 15.065487 4.857926 34.767178 -0.882377
2004-04-13 07:05:06 51°13.599 2°56.084 15.065487 4.857926 34.767178 -0.882377
2004-04-13 07:05:11 51°13.6 2°56.079 15.066661 4.857926 34.767178 -0.882377
2004-04-13 07:05:16 51°13.602 2°56.073 15.067617 4.857715 34.76662 -0.882377
2004-04-13 07:05:21 51°13.603 2°56.066 15.067704 4.857821 34.767467 -0.882377
2004-04-13 07:05:26 51°13.605 2°56.059 15.069181 4.857821 34.768036 -0.848668
2004-04-13 07:05:31 51°13.607 2°56.052 15.067617 4.857715 34.767757 -0.882377
2004-04-13 07:05:35 51°13.609 2°56.046 15.067182 4.857715 34.767757 -0.848668
2004-04-13 07:05:41 51°13.611 2°56.037 15.067182 4.857715 34.767757 -0.848668
2004-04-13 07:05:46 51°13.613 2°56.028 15.069008 4.85761 34.767478 -0.882377
2004-04-13 07:05:51 51°13.616 2°56.02 15.067747 4.85761 34.767478 -0.882377
2004-04-13 07:05:56 51°13.618 2°56.011 15.069225 4.857504 34.76663 -0.882377
2004-04-13 07:06:02 51°13.622 2°56 15.071659 4.857504 34.76663 -0.882377
2004-04-13 07:06:06 51°13.624 2°55.993 15.071659 4.857504 34.76663 -0.882377
2004-04-13 07:06:11 51°13.627 2°55.984 15.075048 4.857399 34.766351 -0.882377
2004-04-13 07:06:17 51°13.631 2°55.973 15.075483 4.857399 34.767488 -0.848668
2004-04-13 07:06:21 51°13.633 2°55.965 15.076091 4.857399 34.767488 -0.848668
2004-04-13 07:06:26 51°13.637 2°55.956 15.076526 4.857399 34.768056 -0.848668
2004-04-13 07:06:31 51°13.64 2°55.947 15.077351 4.857293 34.767209 -0.848668
2004-04-13 07:06:35 51°13.643 2°55.939 15.077351 4.857293 34.767209 -0.848668
2004-04-13 07:06:41 51°13.648 2°55.928 15.07696 4.857188 34.766929 -0.848668
2004-04-13 07:06:46 51°13.652 2°55.918 15.077569 4.857188 34.768066 -0.882377
2004-04-13 07:06:51 51°13.656 2°55.909 15.078611 4.857082 34.767219 -0.848668
2004-04-13 07:06:56 51°13.66 2°55.899 15.078872 4.857082 34.767219 -0.882377
2004-04-13 07:07:01 51°13.664 2°55.889 15.079481 4.856871 34.766092 -0.848668
2004-04-13 07:07:06 51°13.668 2°55.879 15.079481 4.856871 34.766092 -0.848668
2004-04-13 07:07:11 51°13.672 2°55.869 15.079567 4.856977 34.76694 -0.848668
2004-04-13 07:07:15 51°13.675 2°55.862 15.080306 4.856871 34.766092 -0.882377
2004-04-13 07:07:22 51°13.68 2°55.848 15.080741 4.856766 34.766381 -0.814958
2004-04-13 07:07:26 51°13.683 2°55.84 15.081523 4.856871 34.767229 -0.882377
2004-04-13 07:07:31 51°13.687 2°55.83 15.081827 4.856766 34.766381 -0.882377
2004-04-13 07:07:35 51°13.689 2°55.821 15.081827 4.856766 34.766381 -0.882377
2004-04-13 07:07:41 51°13.693 2°55.809 15.082218 4.856871 34.767798 -0.848668
2004-04-13 07:07:46 51°13.695 2°55.799 15.082652 4.856766 34.767518 -0.848668
2004-04-13 07:07:51 51°13.698 2°55.789 15.083522 4.856766 34.768087 -0.882377
2004-04-13 07:07:56 51°13.701 2°55.78 15.083695 4.856766 34.768087 -0.882377
2004-04-13 07:08:01 51°13.703 2°55.772 15.084564 4.856555 34.766391 -0.882377
2004-04-13 07:08:06 51°13.704 2°55.766 15.084564 4.856555 34.766391 -0.882377
2004-04-13 07:08:10 51°13.705 2°55.761 15.084434 4.856555 34.76696 -0.882377
2004-04-13 07:08:15 51°13.706 2°55.757 15.083826 4.856555 34.76696 -0.882377
2004-04-13 07:08:21 51°13.707 2°55.754 15.08426 4.856449 34.766681 -0.882377
2004-04-13 07:08:25 51°13.708 2°55.752 15.084347 4.856555 34.767529 -0.882377
2004-04-13 07:08:31 51°13.708 2°55.752 15.084912 4.856344 34.765833 -0.882377
2004-04-13 07:08:35 51°13.709 2°55.752 15.084912 4.856344 34.765833 -0.882377
2004-04-13 07:08:41 51°13.71 2°55.753 15.08539 4.856344 34.76697 -0.882377
2004-04-13 07:08:45 51°13.71 2°55.753 15.085607 4.857083 34.771768 -0.848668
2004-04-13 07:08:51 51°13.71 2°55.751 14.628025 2.564035 16.989612 -0.848668
2004-04-13 07:08:55 51°13.71 2°55.749 15.090995 0.086248 0.45714 -0.848668
2004-04-13 07:09:01 51°13.71 2°55.746 15.083478 0.100701 0.538381 -0.848668
2004-04-13 07:09:05 51°13.709 2°55.743 15.083478 0.100701 0.538381 -0.848668
2004-04-13 07:09:11 51°13.708 2°55.74 15.066356 0.097374 0.520156 -0.848668
2004-04-13 07:09:15 51°13.708 2°55.737 15.050752 0.092071 0.490583 -0.848668
2004-04-13 07:09:21 51°13.708 2°55.736 15.048231 0.088431 0.470557 -0.882377
2004-04-13 07:09:26 51°13.708 2°55.736 15.044014 0.085728 0.455394 -0.848668
2004-04-13 07:09:31 51°13.71 2°55.736 15.043666 0.083025 0.440657 -0.882377
2004-04-13 07:09:35 51°13.711 2°55.737 15.045579 0.080841 0.428778 -0.848668
2004-04-13 07:09:41 51°13.713 2°55.739 15.045579 0.080841 0.428778 -0.848668
2004-04-13 07:09:46 51°13.716 2°55.74 15.051013 0.079074 0.419063 -0.882377
2004-04-13 07:09:50 51°13.718 2°55.74 15.056403 0.077514 0.410398 -0.882377
2004-04-13 07:09:55 51°13.722 2°55.741 15.060619 0.076475 0.404628 -0.882377
2004-04-13 07:10:00 51°13.725 2°55.741 15.062314 0.075643 0.400081 -0.848668
2004-04-13 07:10:05 51°13.727 2°55.741 15.062314 0.075643 0.400081 -0.848668
2004-04-13 07:10:10 51°13.729 2°55.74 15.057794 0.075539 0.399531 -0.916087
2004-04-13 07:10:15 51°13.73 2°55.74 15.051839 0.074811 0.395591 -0.848668
2004-04-13 07:10:21 51°13.73 2°55.739 15.05336 0.074603 0.39448 -0.882377
2004-04-13 07:10:26 51°13.732 2°55.738 15.059663 0.074188 0.392221 -0.848668
2004-04-13 07:10:30 51°13.734 2°55.738 15.064357 0.073564 0.388821 -0.848668
2004-04-13 07:10:35 51°13.736 2°55.735 15.064357 0.073564 0.388821 -0.848668
2004-04-13 07:10:41 51°13.741 2°55.731 15.065096 0.072836 0.384862 -0.848668
2004-04-13 07:10:45 51°13.744 2°55.727 15.065487 0.072212 0.381465 -0.882377
2004-04-13 07:10:50 51°13.749 2°55.722 15.067095 0.0719 0.379765 -0.882377
2004-04-13 07:10:55 51°13.754 2°55.716 15.069399 0.071589 0.378071 -0.848668
2004-04-13 07:11:01 51°13.759 2°55.708 15.068703 0.070965 0.374683 -0.848668
2004-04-13 07:11:05 51°13.764 2°55.703 15.068703 0.070965 0.374683 -0.848668
2004-04-13 07:11:10 51°13.769 2°55.697 15.068182 0.070549 0.372412 -0.848668
2004-04-13 07:11:15 51°13.776 2°55.69 15.0674 0.069821 0.36845 -0.882377
2004-04-13 07:11:21 51°13.783 2°55.681 15.067704 0.069302 0.365622 -0.848668
2004-04-13 07:11:24 51°13.787 2°55.677 15.068051 0.068782 0.3628 -0.882377
2004-04-13 07:11:31 51°13.797 2°55.667 15.068486 0.068262 0.359979 -0.848668
2004-04-13 07:11:35 51°13.804 2°55.661 15.068486 0.068262 0.359979 -0.848668
2004-04-13 07:11:41 51°13.813 2°55.652 15.068269 0.067638 0.356594 -0.882377
2004-04-13 07:11:45 51°13.819 2°55.646 15.067965 0.067222 0.354335 -0.848668
2004-04-13 07:11:50 51°13.827 2°55.639 15.0674 0.066703 0.351523 -0.848668
2004-04-13 07:11:55 51°13.835 2°55.632 15.066791 0.066079 0.348143 -0.848668
2004-04-13 07:12:01 51°13.845 2°55.623 15.066487 0.065663 0.345897 -0.882377
2004-04-13 07:12:05 51°13.852 2°55.618 15.066487 0.065663 0.345897 -0.882377
2004-04-13 07:12:10 51°13.861 2°55.611 15.066748 0.065143 0.343089 -0.882377
2004-04-13 07:12:15 51°13.869 2°55.604 15.067182 0.064624 0.340286 -0.882377
2004-04-13 07:12:21 51°13.88 2°55.596 15.067834 0.064104 0.33748 -0.882377
2004-04-13 07:12:25 51°13.888 2°55.591 15.068877 0.063584 0.334669 -0.882377
2004-04-13 07:12:31 51°13.899 2°55.582 15.071441 0.063272 0.33299 -0.882377
2004-04-13 07:12:35 51°13.906 2°55.577 15.071441 0.063272 0.33299 -0.882377
2004-04-13 07:12:41 51°13.917 2°55.569 15.075439 0.062649 0.329624 -0.848668
2004-04-13 07:12:45 51°13.925 2°55.563 15.078655 0.062233 0.327379 -0.882377
2004-04-13 07:12:49 51°13.932 2°55.557 15.079698 0.061817 0.32514 -0.882377
2004-04-13 07:12:55 51°13.944 2°55.549 15.079698 0.061297 0.322334 -0.882377
2004-04-13 07:13:00 51°13.953 2°55.542 15.079785 0.060985 0.320653 -0.882377
2004-04-13 07:13:06 51°13.965 2°55.534 15.079785 0.060985 0.320653 -0.882377
2004-04-13 07:13:11 51°13.975 2°55.527 15.079698 0.060466 0.31786 -0.848668
2004-04-13 07:13:15 51°13.983 2°55.521 15.080436 0.060154 0.31618 -0.848668
2004-04-13 07:13:21 51°13.994 2°55.512 15.081392 0.059738 0.313944 -0.882377
2004-04-13 07:13:25 51°14.002 2°55.507 15.082783 0.059322 0.311705 -0.848668
2004-04-13 07:13:31 51°14.014 2°55.498 15.084043 0.05901 0.310031 -0.848668
2004-04-13 07:13:35 51°14.022 2°55.492 15.084043 0.05901 0.310031 -0.848668
2004-04-13 07:13:41 51°14.034 2°55.483 15.08539 0.058595 0.307793 -0.882377
2004-04-13 07:13:45 51°14.042 2°55.477 15.086476 0.058283 0.306116 -0.848668
2004-04-13 07:13:51 51°14.054 2°55.468 15.087736 0.057867 0.303884 -0.848668
2004-04-13 07:13:55 51°14.063 2°55.462 15.089561 0.057555 0.302212 -0.882377
2004-04-13 07:14:00 51°14.074 2°55.454 15.090604 0.057243 0.300537 -0.882377
2004-04-13 07:14:05 51°14.085 2°55.446 15.090604 0.057243 0.300537 -0.882377
2004-04-13 07:14:10 51°14.096 2°55.438 15.091472 0.056828 0.298302 -0.848668
2004-04-13 07:14:15 51°14.108 2°55.429 15.092385 0.056516 0.296627 -0.882377
2004-04-13 07:14:21 51°14.122 2°55.418 15.094687 0.056204 0.294953 -0.848668
2004-04-13 07:14:25 51°14.132 2°55.41 15.0956 0.055996 0.293839 -0.882377
2004-04-13 07:14:31 51°14.147 2°55.399 15.096555 0.055684 0.29217 -0.882377
2004-04-13 07:14:35 51°14.157 2°55.391 15.096555 0.055684 0.29217 -0.882377
2004-04-13 07:14:41 51°14.173 2°55.378 15.096729 0.055372 0.290497 -0.882377
2004-04-13 07:14:43 51°14.178 2°55.373 15.096425 0.054957 0.288266 -0.848668
2004-04-13 07:14:51 51°14.197 2°55.353 15.096859 0.054645 0.286594 -0.882377
2004-04-13 07:14:55 51°14.207 2°55.342 15.097685 0.054541 0.286044 -0.882377
2004-04-13 07:15:01 51°14.222 2°55.326 15.097468 0.054229 0.284373 -0.882377
2004-04-13 07:15:05 51°14.232 2°55.314 15.097468 0.054229 0.284373 -0.882377
2004-04-13 07:15:10 51°14.244 2°55.299 15.097945 0.054125 0.283819 -0.848668
2004-04-13 07:15:15 51°14.255 2°55.283 15.099379 0.053813 0.282148 -0.848668
2004-04-13 07:15:21 51°14.268 2°55.263 15.100639 0.053605 0.281036 -0.848668
2004-04-13 07:15:25 51°14.276 2°55.248 15.10129 0.05319 0.278808 -0.848668
2004-04-13 07:15:30 51°14.286 2°55.23 15.102246 0.052982 0.277701 -0.814958
2004-04-13 07:15:35 51°14.296 2°55.211 15.102246 0.052982 0.277701 -0.814958
2004-04-13 07:15:41 51°14.308 2°55.187 15.102029 0.054021 0.283278 -0.882377
2004-04-13 07:15:45 51°14.315 2°55.171 15.101985 0.051527 0.269902 -0.882377
2004-04-13 07:15:51 51°14.326 2°55.146 15.10255 0.051423 0.26935 -0.882377
2004-04-13 07:15:55 51°14.333 2°55.128 15.103288 0.051215 0.26824 -0.882377
2004-04-13 07:15:59 51°14.34 2°55.111 15.104027 0.050903 0.26657 -0.882377
2004-04-13 07:16:05 51°14.351 2°55.084 15.104027 0.050903 0.26657 -0.882377
2004-04-13 07:16:10 51°14.359 2°55.062 15.104592 0.050799 0.266022 -0.882377
2004-04-13 07:16:15 51°14.367 2°55.038 15.104809 0.050591 0.264909 -0.848668
2004-04-13 07:16:21 51°14.377 2°55.01 15.105026 0.050072 0.262131 -0.848668
2004-04-13 07:16:25 51°14.384 2°54.991 15.105547 0.050072 0.262135 -0.848668
2004-04-13 07:16:30 51°14.394 2°54.968 15.105156 0.049864 0.261031 -0.916087
2004-04-13 07:16:36 51°14.407 2°54.942 15.105156 0.049864 0.261031 -0.916087
2004-04-13 07:16:41 51°14.418 2°54.921 15.104896 0.049448 0.258804 -0.882377
2004-04-13 07:16:46 51°14.431 2°54.901 15.10659 0.04924 0.257696 -0.882377
2004-04-13 07:16:50 51°14.441 2°54.886 15.107241 0.050799 0.266042 -0.848668
2004-04-13 07:16:55 51°14.455 2°54.868 15.106937 0.048513 0.253812 -0.882377
2004-04-13 07:17:00 51°14.47 2°54.852 15.110933 0.048201 0.252155 -0.848668
2004-04-13 07:17:06 51°14.489 2°54.835 15.110933 0.048201 0.252155 -0.848668
2004-04-13 07:17:11 51°14.505 2°54.821 15.11254 0.047993 0.251041 -0.882377
2004-04-13 07:17:15 51°14.518 2°54.811 15.116623 0.047785 0.249935 -0.882377
2004-04-13 07:17:21 51°14.539 2°54.797 15.116405 0.047681 0.249381 -0.848668
2004-04-13 07:17:25 51°14.553 2°54.79 15.117404 0.04924 0.257716 -0.882377
2004-04-13 07:17:30 51°14.571 2°54.783 15.117187 0.04976 0.260491 -0.848668
2004-04-13 07:17:35 51°14.59 2°54.777 15.117187 0.04976 0.260491 -0.848668
2004-04-13 07:17:41 51°14.613 2°54.774 15.117535 0.047369 0.247728 -0.848668
2004-04-13 07:17:45 51°14.628 2°54.774 15.113973 0.047265 0.247174 -0.882377
2004-04-13 07:17:51 51°14.651 2°54.776 15.120574 0.047265 0.247177 -0.882377
2004-04-13 07:17:55 51°14.666 2°54.779 15.123484 0.048721 0.254946 -0.882377
2004-04-13 07:18:01 51°14.69 2°54.785 15.126524 0.04685 0.244967 -0.882377
2004-04-13 07:18:06 51°14.709 2°54.791 15.126524 0.04685 0.244967 -0.882377
2004-04-13 07:18:11 51°14.728 2°54.799 15.120835 0.046538 0.243301 -0.848668
2004-04-13 07:18:15 51°14.743 2°54.806 15.122051 0.04633 0.242197 -0.882377
2004-04-13 07:18:21 51°14.766 2°54.817 15.119489 0.046434 0.242755 -0.848668
2004-04-13 07:18:26 51°14.785 2°54.828 15.117361 0.046122 0.241097 -0.848668
2004-04-13 07:18:31 51°14.803 2°54.839 15.123484 0.045914 0.239993 -0.848668
2004-04-13 07:18:35 51°14.818 2°54.848 15.123484 0.045914 0.239993 -0.848668
2004-04-13 07:18:41 51°14.841 2°54.861 15.120357 0.045914 0.239997 -0.848668
2004-04-13 07:18:45 51°14.856 2°54.87 15.119272 0.045603 0.238343 -0.848668
2004-04-13 07:18:50 51°14.875 2°54.88 15.134817 0.045291 0.236687 -0.882377
2004-04-13 07:18:55 51°14.894 2°54.888 15.129433 0.045187 0.236134 -0.882377
2004-04-13 07:19:01 51°14.917 2°54.898 15.125959 0.045187 0.236141 -0.882377
2004-04-13 07:19:05 51°14.932 2°54.904 15.125959 0.045187 0.236141 -0.882377
2004-04-13 07:19:11 51°14.956 2°54.914 15.127479 0.045083 0.235591 -0.882377
2004-04-13 07:19:15 51°14.971 2°54.92 15.132038 0.045291 0.236698 -0.848668
2004-04-13 07:19:21 51°14.994 2°54.927 15.127739 0.045291 0.236701 -0.814958
2004-04-13 07:19:26 51°15.014 2°54.932 15.129607 0.044875 0.234489 -0.848668
2004-04-13 07:19:31 51°15.034 2°54.937 15.130649 0.044875 0.234492 -0.848668
2004-04-13 07:19:35 51°15.05 2°54.94 15.130649 0.044875 0.234492 -0.848668
2004-04-13 07:19:41 51°15.073 2°54.945 15.129389 0.044979 0.235052 -0.848668
2004-04-13 07:19:45 51°15.089 2°54.949 15.128087 0.044979 0.235056 -0.916087
2004-04-13 07:19:51 51°15.113 2°54.954 15.130562 0.045603 0.238376 -0.882377
2004-04-13 07:19:55 51°15.128 2°54.958 15.130171 0.044667 0.233397 -0.848668
2004-04-13 07:20:01 51°15.152 2°54.963 15.140417 0.044355 0.231749 -0.848668
2004-04-13 07:20:05 51°15.168 2°54.966 15.140417 0.044355 0.231749 -0.848668
2004-04-13 07:20:10 51°15.187 2°54.97 15.130866 0.046226 0.241709 -0.848668
2004-04-13 07:20:15 51°15.207 2°54.974 15.12991 0.044148 0.230647 -0.882377
2004-04-13 07:20:21 51°15.23 2°54.979 15.129737 0.044044 0.230098 -0.882377
2004-04-13 07:20:25 51°15.246 2°54.983 15.136119 0.04394 0.229549 -0.848668
2004-04-13 07:20:31 51°15.27 2°54.988 15.138681 0.044563 0.232868 -0.882377
2004-04-13 07:20:35 51°15.285 2°54.99 15.138681 0.044563 0.232868 -0.882377
2004-04-13 07:20:41 51°15.309 2°54.993 15.136206 0.043628 0.227902 -0.848668
2004-04-13 07:20:46 51°15.329 2°54.996 15.135685 0.043524 0.227353 -0.882377
2004-04-13 07:20:51 51°15.348 2°55 15.134339 0.04394 0.229566 -0.916087
2004-04-13 07:20:55 51°15.364 2°55.005 15.131126 0.04342 0.226808 -0.882377
2004-04-13 07:21:00 51°15.384 2°55.011 15.134252 0.043732 0.228465 -0.848668
2004-04-13 07:21:05 51°15.403 2°55.019 15.134252 0.043732 0.228465 -0.848668
2004-04-13 07:21:11 51°15.426 2°55.032 15.14376 0.043212 0.22571 -0.848668
2004-04-13 07:21:15 51°15.441 2°55.041 15.140895 0.043108 0.225162 -0.882377
2004-04-13 07:21:21 51°15.462 2°55.058 15.140331 0.0429 0.224061 -0.882377
2004-04-13 07:21:25 51°15.476 2°55.071 15.143543 0.044044 0.230143 -0.848668
2004-04-13 07:21:30 51°15.493 2°55.088 15.140808 0.0429 0.224075 -0.882377
2004-04-13 07:21:35 51°15.51 2°55.105 15.140808 0.0429 0.224075 -0.882377
2004-04-13 07:21:41 51°15.53 2°55.127 15.142805 0.042693 0.222974 -0.848668
2004-04-13 07:21:45 51°15.543 2°55.141 15.146886 0.042589 0.222429 -0.848668
2004-04-13 07:21:51 51°15.562 2°55.166 15.139636 0.042485 0.221881 -0.882377
2004-04-13 07:21:55 51°15.575 2°55.182 15.142154 0.042589 0.222439 -0.848668
2004-04-13 07:22:01 51°15.592 2°55.209 15.142588 0.042277 0.220788 -0.848668
2004-04-13 07:22:06 51°15.607 2°55.232 15.142588 0.042277 0.220788 -0.848668
2004-04-13 07:22:11 51°15.621 2°55.255 15.144455 0.042173 0.220243 -0.848668
2004-04-13 07:22:15 51°15.632 2°55.274 15.150185 0.04342 0.226872 -0.882377
2004-04-13 07:22:21 51°15.649 2°55.302 15.146365 0.043004 0.224664 -0.848668
2004-04-13 07:22:26 51°15.663 2°55.325 15.144715 0.041861 0.218602 -0.848668
2004-04-13 07:22:31 51°15.677 2°55.348 15.157868 0.041653 0.217503 -0.882377
2004-04-13 07:22:35 51°15.688 2°55.367 15.157868 0.041653 0.217503 -0.882377
2004-04-13 07:22:41 51°15.704 2°55.396 15.145453 0.041965 0.219163 -0.882377
2004-04-13 07:22:45 51°15.715 2°55.415 15.152182 0.041965 0.21917 -0.882377
2004-04-13 07:22:50 51°15.729 2°55.44 15.14541 0.041549 0.216968 -0.882377
2004-04-13 07:22:55 51°15.742 2°55.465 15.149968 0.041549 0.216968 -0.848668
2004-04-13 07:23:01 51°15.757 2°55.495 15.155958 0.041238 0.215325 -0.848668
2004-04-13 07:23:05 51°15.767 2°55.515 15.155958 0.041238 0.215325 -0.848668
2004-04-13 07:23:11 51°15.783 2°55.545 15.151357 0.041342 0.215879 -0.882377
2004-04-13 07:23:15 51°15.793 2°55.566 15.148709 0.041238 0.215335 -0.848668
2004-04-13 07:23:21 51°15.808 2°55.596 15.153788 0.040926 0.213689 -0.882377
2004-04-13 07:23:26 51°15.821 2°55.622 15.155741 0.041342 0.215895 -0.848668
2004-04-13 07:23:31 51°15.832 2°55.648 15.158302 0.041134 0.214793 -0.882377
2004-04-13 07:23:35 51°15.842 2°55.669 15.158302 0.041134 0.214793 -0.882377
2004-04-13 07:23:41 51°15.856 2°55.701 15.158302 0.040926 0.213705 -0.848668
2004-04-13 07:23:45 51°15.866 2°55.721 15.156088 0.040926 0.213705 -0.882377
2004-04-13 07:23:51 51°15.88 2°55.753 15.156305 0.040718 0.21261 -0.882377
2004-04-13 07:23:55 51°15.89 2°55.773 15.157 0.04051 0.211515 -0.882377
2004-04-13 07:24:01 51°15.905 2°55.804 15.15535 0.041134 0.214829 -0.848668
2004-04-13 07:24:05 51°15.915 2°55.824 15.15535 0.041134 0.214829 -0.848668
2004-04-13 07:24:10 51°15.927 2°55.85 15.154916 0.040406 0.210974 -0.848668
2004-04-13 07:24:16 51°15.942 2°55.881 15.218994 0.040302 0.210423 -0.848668
2004-04-13 07:24:21 51°15.954 2°55.907 15.215092 0.040406 0.21098 -0.882377
2004-04-13 07:24:25 51°15.964 2°55.927 15.20182 0.046018 0.240869 -0.882377
2004-04-13 07:24:30 51°15.977 2°55.953 15.19835 0.047265 0.247606 -0.848668
2004-04-13 07:24:35 51°15.989 2°55.979 15.19835 0.047265 0.247606 -0.848668
2004-04-13 07:24:41 51°16.003 2°56.011 15.195834 0.047993 0.25153 -0.848668
2004-04-13 07:24:45 51°16.013 2°56.031 15.193231 0.048097 0.252101 -0.848668
2004-04-13 07:24:51 51°16.028 2°56.062 15.192364 0.048409 0.253782 -0.882377
2004-04-13 07:24:56 51°16.04 2°56.088 15.191887 0.048721 0.255447 -0.882377
2004-04-13 07:25:01 51°16.052 2°56.114 15.102898 0.051007 0.267738 -0.848668
2004-04-13 07:25:05 51°16.062 2°56.136 15.102898 0.051007 0.267738 -0.848668
2004-04-13 07:25:11 51°16.076 2°56.167 15.05023 1.302698 8.172151 -0.882377
2004-04-13 07:25:15 51°16.086 2°56.189 15.05988 1.228532 7.693341 -0.848668
2004-04-13 07:25:21 51°16.099 2°56.221 15.059359 1.307099 8.229108 -0.848668
2004-04-13 07:25:26 51°16.111 2°56.247 15.057359 1.334865 8.409797 -0.882377
2004-04-13 07:25:31 51°16.123 2°56.274 15.062314 1.21502 7.592572 -0.882377
2004-04-13 07:25:35 51°16.132 2°56.295 15.062314 1.21502 7.592572 -0.882377
2004-04-13 07:25:41 51°16.146 2°56.328 15.066487 1.235654 7.740288 -0.848668
2004-04-13 07:25:46 51°16.158 2°56.354 15.070355 1.197636 7.494616 -0.882377
2004-04-13 07:25:51 51°16.17 2°56.381 15.44947 1.278288 8.047972 -0.848668
2004-04-13 07:25:55 51°16.179 2°56.402 15.505456 1.247281 7.840617 -0.848668
2004-04-13 07:26:01 51°16.193 2°56.434 15.427859 1.273679 8.022961 -0.848668
2004-04-13 07:26:05 51°16.202 2°56.456 15.427859 1.273679 8.022961 -0.848668
2004-04-13 07:26:10 51°16.214 2°56.482 15.352423 1.265194 7.967654 -0.882377
2004-04-13 07:26:15 51°16.226 2°56.509 15.391622 1.272213 8.017256 -0.848668
2004-04-13 07:26:21 51°16.239 2°56.541 15.37341 1.34765 8.533964 -0.882377
2004-04-13 07:26:25 51°16.248 2°56.563 15.283575 1.221934 7.677181 -0.848668
2004-04-13 07:26:31 51°16.262 2°56.595 15.265854 1.281536 8.082882 -0.848668
2004-04-13 07:26:35 51°16.271 2°56.616 15.265854 1.281536 8.082882 -0.848668
2004-04-13 07:26:41 51°16.285 2°56.648 16.239156 1.346183 8.524189 -0.882377
2004-04-13 07:26:45 51°16.294 2°56.669 17.161635 1.188316 7.448373 -0.882377
2004-04-13 07:26:50 51°16.305 2°56.695 18.846745 1.364417 8.648074 -0.848668
2004-04-13 07:26:55 51°16.317 2°56.722 21.859166 1.280489 8.073909 -0.848668
2004-04-13 07:27:01 51°16.33 2°56.754 20.913331 1.222876 7.681837 -0.848668
2004-04-13 07:27:06 51°16.342 2°56.78 20.913331 1.222876 7.681837 -0.848668
2004-04-13 07:27:11 51°16.353 2°56.806 21.0408 1.320721 8.348287 -0.848668
2004-04-13 07:27:15 51°16.362 2°56.827 20.882487 1.345554 8.517675 -0.882377
2004-04-13 07:27:21 51°16.376 2°56.858 19.620949 1.227904 7.715084 -0.848668
2004-04-13 07:27:25 51°16.385 2°56.88 20.296177 1.274727 8.033734 -0.882377
2004-04-13 07:27:31 51°16.399 2°56.911 20.116635 1.245396 7.834779 -0.882377
2004-04-13 07:27:35 51°16.408 2°56.933 20.116635 1.245396 7.834779 -0.882377
2004-04-13 07:27:41 51°16.422 2°56.964 22.550104 1.315586 8.313731 -0.882377
2004-04-13 07:27:46 51°16.433 2°56.991 21.206159 1.253881 7.893239 -0.882377
2004-04-13 07:27:50 51°16.442 2°57.012 22.476362 1.303852 8.234365 -0.882377
2004-04-13 07:27:55 51°16.453 2°57.039 23.113741 1.189886 7.459487 -0.848668
2004-04-13 07:28:01 51°16.467 2°57.07 22.865888 1.285832 8.111386 -0.882377
2004-04-13 07:28:05 51°16.476 2°57.092 22.865888 1.285832 8.111386 -0.882377
2004-04-13 07:28:11 51°16.489 2°57.123 23.471635 1.280593 8.075538 -0.882377
2004-04-13 07:28:15 51°16.498 2°57.145 24.009132 1.327741 8.397383 -0.848668
2004-04-13 07:28:21 51°16.512 2°57.177 23.86898 1.283317 8.093847 -0.882377
2004-04-13 07:28:25 51°16.522 2°57.198 22.848241 1.216802 7.641246 -0.848668
2004-04-13 07:28:31 51°16.535 2°57.229 24.034262 1.339791 8.479309 -0.882377
2004-04-13 07:28:35 51°16.545 2°57.251 24.034262 1.339791 8.479309 -0.882377
2004-04-13 07:28:41 51°16.558 2°57.283 24.027722 1.239321 7.793871 -0.882377
2004-04-13 07:28:46 51°16.57 2°57.309 23.561457 1.237749 7.783196 -0.882377
2004-04-13 07:28:51 51°16.581 2°57.336 23.767411 1.206747 7.572955 -0.848668
2004-04-13 07:28:56 51°16.593 2°57.362 24.181996 1.262575 7.952405 -0.882377
2004-04-13 07:29:01 51°16.604 2°57.389 25.090882 1.227485 7.713738 -0.848668
2004-04-13 07:29:05 51°16.613 2°57.41 25.090882 1.227485 7.713738 -0.848668
2004-04-13 07:29:10 51°16.625 2°57.437 25.807764 1.198893 7.520105 -0.848668
2004-04-13 07:29:15 51°16.636 2°57.463 25.379107 1.225181 7.698346 -0.848668
2004-04-13 07:29:21 51°16.65 2°57.495 27.679747 1.285832 8.111254 -0.848668
2004-04-13 07:29:26 51°16.661 2°57.522 27.064689 1.324178 8.37315 -0.848668
2004-04-13 07:29:31 51°16.673 2°57.548 24.277461 1.24173 7.811253 -0.848668
2004-04-13 07:29:35 51°16.682 2°57.57 24.277461 1.24173 7.811253 -0.848668
2004-04-13 07:29:41 51°16.695 2°57.602 27.689281 1.175016 7.359016 -0.882377
2004-04-13 07:29:45 51°16.704 2°57.623 27.635407 1.329522 8.410115 -0.848668
2004-04-13 07:29:51 51°16.718 2°57.655 26.948275 1.20769 7.580202 -0.848668
2004-04-13 07:29:56 51°16.729 2°57.682 27.684769 1.275565 8.041786 -0.882377
2004-04-13 07:30:01 51°16.741 2°57.708 27.686042 1.261632 7.946888 -0.882377
2004-04-13 07:30:06 51°16.752 2°57.735 27.686042 1.261632 7.946888 -0.882377
2004-04-13 07:30:10 51°16.761 2°57.756 29.573516 1.219211 7.658578 -0.882377
2004-04-13 07:30:15 51°16.773 2°57.783 27.67356 1.268546 7.993967 -0.882377
2004-04-13 07:30:21 51°16.786 2°57.815 29.462897 1.239321 7.795133 -0.848668
2004-04-13 07:30:25 51°16.795 2°57.837 29.160899 1.222772 7.682868 -0.882377
2004-04-13 07:30:31 51°16.809 2°57.868 29.069466 1.257547 7.919466 -0.848668
2004-04-13 07:30:35 51°16.818 2°57.889 29.069466 1.257547 7.919466 -0.848668
2004-04-13 07:30:41 51°16.832 2°57.921 30.176599 1.251367 7.877542 -0.848668
2004-04-13 07:30:45 51°16.841 2°57.942 27.907362 1.246862 7.846907 -0.882377
2004-04-13 07:30:51 51°16.855 2°57.975 28.909612 1.304795 8.242006 -0.882377
2004-04-13 07:30:55 51°16.864 2°57.996 30.840845 1.228846 7.724733 -0.848668
2004-04-13 07:31:01 51°16.877 2°58.028 29.088362 1.347965 8.537501 -0.848668
2004-04-13 07:31:05 51°16.886 2°58.05 29.088362 1.347965 8.537501 -0.848668
2004-04-13 07:31:11 51°16.9 2°58.082 30.496179 1.177006 7.373661 -0.882377
2004-04-13 07:31:15 51°16.909 2°58.102 31.714263 1.197741 7.514126 -0.814958
2004-04-13 07:31:20 51°16.92 2°58.129 30.930133 1.237854 7.786428 -0.882377
2004-04-13 07:31:26 51°16.935 2°58.161 29.45618 1.306471 8.254126 -0.848668
2004-04-13 07:31:30 51°16.944 2°58.182 32.023128 1.149467 7.18798 -0.882377
2004-04-13 07:31:35 51°16.955 2°58.208 32.023128 1.149467 7.18798 -0.882377
2004-04-13 07:31:41 51°16.968 2°58.24 30.482295 1.294422 8.171846 -0.882377
2004-04-13 07:31:46 51°16.98 2°58.267 31.435981 1.291699 8.153386 -0.848668
2004-04-13 07:31:50 51°16.989 2°58.288 31.540105 1.228113 7.720504 -0.848668
2004-04-13 07:31:55 51°17 2°58.315 31.537615 1.301023 8.21731 -0.848668
2004-04-13 07:32:01 51°17.013 2°58.346 32.011993 1.262889 7.95725 -0.848668
2004-04-13 07:32:05 51°17.022 2°58.368 32.011993 1.262889 7.95725 -0.848668
2004-04-13 07:32:10 51°17.034 2°58.394 34.195427 1.286565 8.118885 -0.848668
2004-04-13 07:32:15 51°17.045 2°58.421 32.996169 1.209052 7.591767 -0.848668
2004-04-13 07:32:21 51°17.059 2°58.453 31.643915 1.206957 7.577809 -0.882377
2004-04-13 07:32:26 51°17.07 2°58.479 33.787534 1.257966 7.924242 -0.848668
2004-04-13 07:32:30 51°17.079 2°58.501 34.092675 1.301128 8.218825 -0.848668
2004-04-13 07:32:35 51°17.09 2°58.527 34.092675 1.301128 8.218825 -0.848668
2004-04-13 07:32:40 51°17.102 2°58.554 33.357266 1.289184 8.137415 -0.882377
2004-04-13 07:32:45 51°17.113 2°58.58 32.961787 1.314539 8.310877 -0.848668
2004-04-13 07:32:51 51°17.127 2°58.612 33.929826 1.309824 8.278778 -0.882377
2004-04-13 07:32:55 51°17.136 2°58.633 35.04933 1.285308 8.111623 -0.848668
2004-04-13 07:33:01 51°17.149 2°58.665 35.330839 1.106752 6.901825 -0.882377
2004-04-13 07:33:05 51°17.158 2°58.687 35.330839 1.106752 6.901825 -0.882377
2004-04-13 07:33:11 51°17.172 2°58.719 34.524376 1.333923 8.444063 -0.916087
2004-04-13 07:33:15 51°17.181 2°58.74 36.975866 1.263204 7.961195 -0.848668
2004-04-13 07:33:21 51°17.194 2°58.772 38.364202 1.142243 7.141326 -0.882377
2004-04-13 07:33:25 51°17.203 2°58.793 34.918759 1.213031 7.620487 -0.848668
2004-04-13 07:33:31 51°17.216 2°58.825 37.128213 1.195123 7.499063 -0.848668
2004-04-13 07:33:35 51°17.225 2°58.846 37.128213 1.195123 7.499063 -0.848668
2004-04-13 07:33:41 51°17.239 2°58.878 33.987408 1.149677 7.191955 -0.882377
2004-04-13 07:33:45 51°17.248 2°58.899 34.320334 1.27787 8.061933 -0.882377
2004-04-13 07:33:50 51°17.259 2°58.926 36.088177 1.320092 8.350479 -0.882377
2004-04-13 07:33:55 51°17.271 2°58.953 38.412635 1.265089 7.974944 -0.848668
2004-04-13 07:34:01 51°17.284 2°58.985 36.926073 1.282375 8.093053 -0.848668
2004-04-13 07:34:05 51°17.293 2°59.007 36.926073 1.282375 8.093053 -0.848668
2004-04-13 07:34:10 51°17.304 2°59.034 39.690251 1.142976 7.147196 -0.882377
2004-04-13 07:34:15 51°17.315 2°59.061 40.590404 1.241835 7.817154 -0.848668
2004-04-13 07:34:21 51°17.329 2°59.094 39.626563 1.190724 7.470478 -0.848668
2004-04-13 07:34:26 51°17.341 2°59.12 37.168837 1.220677 7.67387 -0.848668
2004-04-13 07:34:31 51°17.352 2°59.147 38.045874 1.208737 7.592956 -0.882377
2004-04-13 07:34:35 51°17.361 2°59.169 38.045874 1.208737 7.592956 -0.882377
2004-04-13 07:34:41 51°17.375 2°59.201 37.725834 1.358654 8.616083 -0.848668
2004-04-13 07:34:45 51°17.384 2°59.223 38.367595 1.168838 7.322829 -0.848668
2004-04-13 07:34:51 51°17.398 2°59.255 -999 1.244244 7.834557 -0.882377
2004-04-13 07:34:55 51°17.407 2°59.276 38.758619 1.196903 7.513074 -0.882377
2004-04-13 07:35:01 51°17.42 2°59.309 38.85177 1.234817 7.770821 -0.848668
2004-04-13 07:35:05 51°17.43 2°59.33 38.85177 1.234817 7.770821 -0.848668
2004-04-13 07:35:11 51°17.444 2°59.362 37.411476 1.156378 7.239313 -0.848668
2004-04-13 07:35:15 51°17.453 2°59.383 37.853282 1.272422 8.027131 -0.882377
2004-04-13 07:35:21 51°17.466 2°59.416 40.834653 1.1591 7.258061 -0.882377
2004-04-13 07:35:25 51°17.475 2°59.438 40.694704 1.271165 8.018819 -0.848668
2004-04-13 07:35:31 51°17.489 2°59.469 40.174038 1.15376 7.222098 -0.848668
2004-04-13 07:35:35 51°17.498 2°59.491 40.174038 1.15376 7.222098 -0.848668
2004-04-13 07:35:41 51°17.512 2°59.523 38.516915 1.132192 7.076762 -0.882377
2004-04-13 07:35:46 51°17.523 2°59.55 39.74884 1.245291 7.843082 -0.848668
2004-04-13 07:35:51 51°17.535 2°59.577 40.454518 1.206119 7.577159 -0.848668
2004-04-13 07:35:55 51°17.544 2°59.599 40.995671 1.176587 7.377158 -0.848668
2004-04-13 07:36:01 51°17.558 2°59.631 40.649338 1.266765 7.98986 -0.848668
2004-04-13 07:36:05 51°17.567 2°59.653 40.649338 1.266765 7.98986 -0.848668
2004-04-13 07:36:11 51°17.58 2°59.685 39.724462 1.178263 7.388859 -0.882377
2004-04-13 07:36:15 51°17.589 2°59.707 -999 1.206014 7.577063 -0.848668
2004-04-13 07:36:21 51°17.603 2°59.739 43.460283 1.204025 7.563808 -0.848668
2004-04-13 07:36:26 51°17.614 2°59.766 37.944297 1.200673 7.541198 -0.882377
2004-04-13 07:36:31 51°17.626 2°59.793 41.248759 1.130831 7.069073 -0.882377
2004-04-13 07:36:35 51°17.635 2°59.814 41.248759 1.130831 7.069073 -0.882377
2004-04-13 07:36:41 51°17.649 2°59.847 45.457419 1.176587 7.378354 -0.882377
2004-04-13 07:36:45 51°17.658 2°59.868 43.761914 1.283841 8.107922 -0.848668
2004-04-13 07:36:50 51°17.669 2°59.895 41.6836 1.245291 7.845116 -0.848668
2004-04-13 07:36:55 51°17.68 2°59.922 40.652081 1.224867 7.706319 -0.882377
2004-04-13 07:37:01 51°17.694 2°59.955 34.80664 1.182556 7.419492 -0.882377
2004-04-13 07:37:05 51°17.702 2°59.976 45.122073 1.264042 7.973233 -0.848668
2004-04-13 07:37:11 51°17.716 3°0.009 45.122073 1.264042 7.973233 -0.848668
2004-04-13 07:37:15 51°17.725 3°0.031 43.892107 1.122455 7.013633 -0.848668
2004-04-13 07:37:21 51°17.738 3°0.063 44.289064 1.125177 7.03221 -0.882377
2004-04-13 07:37:25 51°17.747 3°0.085 45.051774 1.220572 7.678136 -0.882377
2004-04-13 07:37:31 51°17.761 3°0.117 46.545759 1.108846 6.922519 -0.882377
2004-04-13 07:37:35 51°17.77 3°0.138 46.545759 1.108846 6.922519 -0.882377
2004-04-13 07:37:41 51°17.784 3°0.17 45.061833 1.306367 8.26345 -0.848668
2004-04-13 07:37:45 51°17.793 3°0.193 42.520602 1.135333 7.101395 -0.848668
2004-04-13 07:37:51 51°17.806 3°0.225 41.51108 1.110625 6.934952 -0.882377
2004-04-13 07:37:55 51°17.815 3°0.246 48.546105 1.191353 7.480552 -0.848668
2004-04-13 07:38:01 51°17.828 3°0.279 45.43227 1.161718 7.280117 -0.848668
2004-04-13 07:38:05 51°17.837 3°0.3 45.43227 1.161718 7.280117 -0.848668
2004-04-13 07:38:11 51°17.85 3°0.332 42.739385 1.120257 7.000292 -0.882377
2004-04-13 07:38:16 51°17.862 3°0.359 46.948554 1.188735 7.463289 -0.848668
2004-04-13 07:38:21 51°17.873 3°0.385 46.740011 1.153027 7.22171 -0.882377
2004-04-13 07:38:26 51°17.884 3°0.412 44.104084 1.100681 6.868788 -0.882377
2004-04-13 07:38:31 51°17.896 3°0.439 45.866205 1.167687 7.321326 -0.848668
2004-04-13 07:38:35 51°17.905 3°0.461 45.866205 1.167687 7.321326 -0.848668
2004-04-13 07:38:41 51°17.918 3°0.493 48.111278 1.108532 6.9222 -0.848668
2004-04-13 07:38:46 51°17.929 3°0.52 45.520723 1.150933 7.208259 -0.882377
2004-04-13 07:38:50 51°17.938 3°0.542 44.066074 1.120676 7.004477 -0.882377
2004-04-13 07:38:55 51°17.949 3°0.569 47.159502 1.149467 7.198936 -0.882377
2004-04-13 07:39:01 51°17.963 3°0.601 49.539713 1.238378 7.802119 -0.848668
2004-04-13 07:39:05 51°17.972 3°0.622 49.539713 1.238378 7.802119 -0.848668
2004-04-13 07:39:11 51°17.985 3°0.655 48.244274 1.09283 6.817411 -0.882377
2004-04-13 07:39:15 51°17.994 3°0.676 48.699824 1.143395 7.158486 -0.848668
2004-04-13 07:39:21 51°18.008 3°0.708 4.939691 1.150096 7.203883 -0.848668
2004-04-13 07:39:26 51°18.02 3°0.735 46.523056 1.119733 6.999146 -0.848668
2004-04-13 07:39:31 51°18.031 3°0.762 45.543927 1.1591 7.265242 -0.848668
2004-04-13 07:39:35 51°18.04 3°0.783 45.543927 1.1591 7.265242 -0.848668
2004-04-13 07:39:41 51°18.053 3°0.816 -999 1.126957 7.048208 -0.882377
2004-04-13 07:39:46 51°18.064 3°0.844 47.911839 1.126748 7.04691 -0.882377
2004-04-13 07:39:51 51°18.075 3°0.871 45.18119 1.199417 7.538785 -0.848668
2004-04-13 07:39:56 51°18.086 3°0.897 46.572736 1.082362 6.74824 -0.848668
2004-04-13 07:40:01 51°18.097 3°0.925 48.189065 1.092725 6.818144 -0.848668
2004-04-13 07:40:05 51°18.106 3°0.946 48.189065 1.092725 6.818144 -0.848668
2004-04-13 07:40:10 51°18.117 3°0.973 48.12815 1.119105 6.996046 -0.848668
2004-04-13 07:40:15 51°18.13 3°0.999 48.463383 1.095447 6.837011 -0.882377
2004-04-13 07:40:21 51°18.144 3°1.032 44.876606 1.12926 7.064895 -0.882377
2004-04-13 07:40:26 51°18.155 3°1.059 47.076784 1.083618 6.757779 -0.848668
2004-04-13 07:40:31 51°18.166 3°1.085 46.427379 1.034846 6.430687 -0.848668
2004-04-13 07:40:36 51°18.177 3°1.112 46.427379 1.034846 6.430687 -0.848668
2004-04-13 07:40:41 51°18.189 3°1.139 48.925002 1.192086 7.490503 -0.882377
2004-04-13 07:40:45 51°18.198 3°1.161 47.386212 1.123188 7.024721 -0.814958
2004-04-13 07:40:51 51°18.211 3°1.193 46.312177 1.062685 6.617706 -0.848668
2004-04-13 07:40:55 51°18.22 3°1.215 -999 1.080687 6.738843 -0.882377
2004-04-13 07:40:59 51°18.229 3°1.236 -999 1.175017 7.375732 -0.848668
2004-04-13 07:41:05 51°18.243 3°1.268 -999 1.175017 7.375732 -0.848668
2004-04-13 07:41:10 51°18.254 3°1.295 46.235645 1.093772 6.82718 -0.882377
2004-04-13 07:41:15 51°18.266 3°1.322 49.962965 1.113871 6.962678 -0.882377
2004-04-13 07:41:21 51°18.28 3°1.353 46.540903 1.074093 6.69518 -0.882377
2004-04-13 07:41:25 51°18.289 3°1.375 -999 1.066348 6.643373 -0.848668
2004-04-13 07:41:30 51°18.3 3°1.402 -999 1.085084 6.769389 -0.882377
2004-04-13 07:41:36 51°18.314 3°1.433 -999 1.085084 6.769389 -0.882377
2004-04-13 07:41:41 51°18.326 3°1.46 -999 1.123398 7.02773 -0.814958
2004-04-13 07:41:45 51°18.335 3°1.481 49.552564 0.990165 6.133983 -0.848668
2004-04-13 07:41:50 51°18.346 3°1.508 -999 1.090003 6.803036 -0.882377
2004-04-13 07:41:55 51°18.358 3°1.534 -999 1.054521 6.564748 -0.882377
2004-04-13 07:42:01 51°18.372 3°1.566 -999 1.095551 6.840822 -0.882377
2004-04-13 07:42:05 51°18.381 3°1.588 -999 1.095551 6.840822 -0.882377
2004-04-13 07:42:11 51°18.395 3°1.62 -999 1.000837 6.205894 -0.848668
2004-04-13 07:42:15 51°18.405 3°1.641 49.484236 1.115232 6.973778 -0.848668
2004-04-13 07:42:21 51°18.419 3°1.672 48.193181 1.121095 7.013328 -0.848668
2004-04-13 07:42:25 51°18.428 3°1.693 -999 1.131773 7.085649 -0.882377
2004-04-13 07:42:30 51°18.439 3°1.72 -999 1.113452 6.962228 -0.848668
2004-04-13 07:42:35 51°18.451 3°1.747 -999 1.113452 6.962228 -0.848668
2004-04-13 07:42:41 51°18.464 3°1.779 -999 1.140044 7.14188 -0.848668
2004-04-13 07:42:46 51°18.475 3°1.806 -999 1.028776 6.393488 -0.848668
2004-04-13 07:42:50 51°18.485 3°1.827 -999 1.082781 6.756095 -0.882377
2004-04-13 07:42:55 51°18.496 3°1.854 -999 1.130412 7.077376 -0.882377
2004-04-13 07:43:01 51°18.509 3°1.887 -999 1.100576 6.876222 -0.882377
2004-04-13 07:43:05 51°18.518 3°1.908 -999 1.100576 6.876222 -0.882377
2004-04-13 07:43:11 51°18.532 3°1.94 -999 1.042904 6.488859 -0.882377
2004-04-13 07:43:15 51°18.541 3°1.962 -999 1.063941 6.630223 -0.882377
2004-04-13 07:43:21 51°18.555 3°1.993 -999 1.138055 7.129825 -0.848668
2004-04-13 07:43:25 51°18.564 3°2.014 -999 1.041648 6.481072 -0.848668
2004-04-13 07:43:30 51°18.576 3°2.041 49.920745 1.126957 7.055075 -0.848668
2004-04-13 07:43:35 51°18.588 3°2.068 49.920745 1.126957 7.055075 -0.848668
2004-04-13 07:43:41 51°18.602 3°2.1 49.475792 1.208214 7.605797 -0.882377
2004-04-13 07:43:45 51°18.611 3°2.122 49.710284 1.096598 6.850761 -0.882377
2004-04-13 07:43:50 51°18.622 3°2.148 -999 0.997594 6.186751 -0.882377
2004-04-13 07:43:55 51°18.633 3°2.175 -999 1.128214 7.064248 -0.848668
2004-04-13 07:44:01 51°18.647 3°2.208 -999 1.153446 7.234984 -0.916087
2004-04-13 07:44:05 51°18.656 3°2.229 -999 1.153446 7.234984 -0.916087
2004-04-13 07:44:10 51°18.667 3°2.256 -999 1.051695 6.549407 -0.882377
2004-04-13 07:44:15 51°18.679 3°2.283 -999 1.103088 6.895389 -0.916087
2004-04-13 07:44:21 51°18.693 3°2.315 -999 1.049288 6.53368 -0.882377
2004-04-13 07:44:26 51°18.704 3°2.342 -999 1.093144 6.828604 -0.882377
2004-04-13 07:44:31 51°18.716 3°2.369 -999 1.058707 6.597226 -0.848668
2004-04-13 07:44:36 51°18.727 3°2.396 -999 1.071058 6.680424 -0.848668
2004-04-13 07:44:41 51°18.739 3°2.423 -999 1.071058 6.680424 -0.848668
2004-04-13 07:44:46 51°18.75 3°2.449 -999 1.025323 6.373788 -0.882377
2004-04-13 07:44:51 51°18.762 3°2.476 -999 0.981272 6.079532 -0.848668
2004-04-13 07:44:55 51°18.771 3°2.498 -999 1.125492 7.04781 -0.916087
2004-04-13 07:45:01 51°18.784 3°2.53 32.16842 1.009208 6.266274 -0.882377
2004-04-13 07:45:06 51°18.795 3°2.558 32.16842 1.009208 6.266274 -0.882377
2004-04-13 07:45:11 51°18.806 3°2.585 -999 1.071372 6.683295 -0.848668
2004-04-13 07:45:15 51°18.814 3°2.608 -999 1.184337 7.446524 -0.848668
2004-04-13 07:45:21 51°18.827 3°2.64 -999 1.021765 6.350794 -0.848668
2004-04-13 07:45:26 51°18.838 3°2.668 -999 1.173865 7.37607 -0.882377
2004-04-13 07:45:31 51°18.849 3°2.695 -999 1.111987 6.95754 -0.848668
2004-04-13 07:45:36 51°18.861 3°2.722 -999 1.111987 6.95754 -0.848668
2004-04-13 07:45:41 51°18.872 3°2.749 10.450925 0.990584 6.142951 -0.882377
2004-04-13 07:45:45 51°18.881 3°2.77 -999 1.022916 6.359326 -0.848668
2004-04-13 07:45:51 51°18.895 3°2.802 -999 1.136799 7.125846 -0.848668
2004-04-13 07:45:55 51°18.905 3°2.823 -999 0.985457 6.109231 -0.848668
2004-04-13 07:46:01 51°18.918 3°2.855 -999 1.052114 6.555516 -0.848668
2004-04-13 07:46:05 51°18.927 3°2.876 -999 1.052114 6.555516 -0.848668
2004-04-13 07:46:11 51°18.941 3°2.908 -999 1.189887 7.486155 -0.848668
2004-04-13 07:46:15 51°18.95 3°2.93 -999 0.96945 6.002884 -0.882377
2004-04-13 07:46:21 51°18.963 3°2.962 -999 1.068023 6.662835 -0.848668
2004-04-13 07:46:25 51°18.972 3°2.984 -999 1.087701 6.795483 -0.848668
2004-04-13 07:46:31 51°18.986 3°3.016 -999 1.009522 6.270918 -0.882377
2004-04-13 07:46:35 51°18.995 3°3.038 -999 1.009522 6.270918 -0.882377
2004-04-13 07:46:41 51°19.008 3°3.07 -999 0.981272 6.082396 -0.848668
2004-04-13 07:46:46 51°19.02 3°3.096 -999 1.05023 6.544145 -0.882377
2004-04-13 07:46:51 51°19.031 3°3.123 -999 1.010778 6.27993 -0.882377
2004-04-13 07:46:55 51°19.04 3°3.144 -999 1.129575 7.079191 -0.882377
2004-04-13 07:47:01 51°19.054 3°3.177 -999 1.079222 6.739709 -0.848668
2004-04-13 07:47:06 51°19.065 3°3.203 -999 1.079222 6.739709 -0.848668
2004-04-13 07:47:11 51°19.076 3°3.23 -999 1.111777 6.959181 -0.848668
2004-04-13 07:47:15 51°19.085 3°3.252 -999 1.028149 6.396967 -0.848668
2004-04-13 07:47:21 51°19.098 3°3.284 -999 0.988491 6.131871 -0.882377
2004-04-13 07:47:25 51°19.107 3°3.306 -999 1.158473 7.275867 -0.882377
2004-04-13 07:47:31 51°19.121 3°3.338 47.870397 0.963487 5.965388 -0.882377
2004-04-13 07:47:35 51°19.13 3°3.359 47.870397 0.963487 5.965388 -0.882377
2004-04-13 07:47:41 51°19.143 3°3.392 -999 1.109056 6.941711 -0.848668
2004-04-13 07:47:45 51°19.152 3°3.413 -999 1.087491 6.796503 -0.882377
2004-04-13 07:47:50 51°19.163 3°3.44 -999 1.054731 6.57629 -0.882377
2004-04-13 07:47:55 51°19.174 3°3.467 -999 1.046044 6.518161 -0.848668
2004-04-13 07:48:01 51°19.188 3°3.499 -999 1.088119 6.801509 -0.848668
2004-04-13 07:48:06 51°19.2 3°3.525 -999 1.039137 6.472223 -0.882377
2004-04-13 07:48:10 51°19.209 3°3.547 -999 1.039137 6.472223 -0.882377
2004-04-13 07:48:15 51°19.22 3°3.574 -999 0.978238 6.064718 -0.882377
2004-04-13 07:48:21 51°19.233 3°3.606 45.695033 1.082676 6.765166 -0.848668
2004-04-13 07:48:26 51°19.244 3°3.633 -999 1.059126 6.606904 -0.848668
2004-04-13 07:48:31 51°19.255 3°3.66 -999 1.038195 6.466534 -0.882377
2004-04-13 07:48:36 51°19.266 3°3.687 -999 1.038195 6.466534 -0.882377
2004-04-13 07:48:41 51°19.278 3°3.714 -999 1.217431 7.678711 -0.882377
2004-04-13 07:48:46 51°19.289 3°3.741 -999 0.996443 6.187202 -0.882377
2004-04-13 07:48:50 51°19.298 3°3.762 -999 0.991839 6.156633 -0.848668
2004-04-13 07:48:55 51°19.309 3°3.789 -999 1.005651 6.249087 -0.882377
2004-04-13 07:49:01 51°19.323 3°3.821 -999 1.121095 7.025876 -0.882377
2004-04-13 07:49:05 51°19.332 3°3.842 -999 1.121095 7.025876 -0.882377
2004-04-13 07:49:10 51°19.343 3°3.869 -999 0.949051 5.871757 -0.848668
2004-04-13 07:49:15 51°19.355 3°3.895 -999 1.031393 6.422156 -0.882377
2004-04-13 07:49:21 51°19.368 3°3.927 -999 0.975518 6.048339 -0.882377
2004-04-13 07:49:25 51°19.378 3°3.948 -999 1.14507 7.188815 -0.848668
2004-04-13 07:49:31 51°19.391 3°3.981 -999 1.010046 6.279519 -0.848668
2004-04-13 07:49:35 51°19.4 3°4.002 -999 1.010046 6.279519 -0.848668
2004-04-13 07:49:41 51°19.413 3°4.035 -999 0.983469 6.102111 -0.882377
2004-04-13 07:49:45 51°19.422 3°4.056 -999 1.089585 6.814266 -0.882377
2004-04-13 07:49:51 51°19.436 3°4.089 -999 1.095028 6.851312 -0.848668
2004-04-13 07:49:55 51°19.444 3°4.11 -999 1.098273 6.873431 -0.882377
2004-04-13 07:50:01 51°19.458 3°4.143 -999 0.973216 6.034257 -0.848668
2004-04-13 07:50:05 51°19.467 3°4.164 -999 0.973216 6.034257 -0.848668
2004-04-13 07:50:11 51°19.48 3°4.197 -999 1.099215 6.880125 -0.848668
2004-04-13 07:50:15 51°19.489 3°4.218 -999 0.990165 6.147746 -0.882377
2004-04-13 07:50:21 51°19.503 3°4.251 -999 1.071477 6.693459 -0.882377
2004-04-13 07:50:26 51°19.514 3°4.277 -999 1.029823 6.413818 -0.882377
2004-04-13 07:50:31 51°19.525 3°4.305 -999 1.061743 6.628377 -0.848668
2004-04-13 07:50:35 51°19.534 3°4.326 -999 1.061743 6.628377 -0.848668
2004-04-13 07:50:41 51°19.547 3°4.359 -999 1.09126 6.827337 -0.916087
2004-04-13 07:50:46 51°19.559 3°4.386 -999 1.131355 7.098497 -0.882377
2004-04-13 07:50:51 51°19.57 3°4.413 -999 0.990479 6.150844 -0.882377
2004-04-13 07:50:55 51°19.579 3°4.435 -999 0.982005 6.094311 -0.882377
2004-04-13 07:50:59 51°19.588 3°4.457 -999 1.093039 6.840233 -0.882377
2004-04-13 07:51:06 51°19.604 3°4.494 -999 1.093039 6.840233 -0.882377
2004-04-13 07:51:10 51°19.613 3°4.516 -999 1.11607 6.995784 -0.848668
2004-04-13 07:51:16 51°19.626 3°4.549 -999 1.070116 6.68593 -0.848668
2004-04-13 07:51:21 51°19.637 3°4.576 -999 0.977401 6.064357 -0.882377
2004-04-13 07:51:25 51°19.645 3°4.598 -999 1.115546 6.992928 -0.882377
2004-04-13 07:51:31 51°19.658 3°4.631 -999 0.946017 5.855376 -0.882377
2004-04-13 07:51:35 51°19.667 3°4.653 -999 0.946017 5.855376 -0.882377
2004-04-13 07:51:41 51°19.68 3°4.686 -999 0.97646 6.058464 -0.882377
2004-04-13 07:51:45 51°19.689 3°4.708 -999 0.988701 6.140453 -0.848668
2004-04-13 07:51:51 51°19.702 3°4.74 -999 1.046044 6.525057 -0.848668
2004-04-13 07:51:55 51°19.711 3°4.761 -999 0.947377 5.865098 -0.848668
2004-04-13 07:52:01 51°19.725 3°4.794 -999 1.044684 6.516232 -0.882377
2004-04-13 07:52:06 51°19.736 3°4.82 -999 1.059964 6.619207 -0.882377
2004-04-13 07:52:10 51°19.745 3°4.842 -999 1.059964 6.619207 -0.882377
2004-04-13 07:52:15 51°19.757 3°4.869 -999 1.051486 6.562283 -0.882377
2004-04-13 07:52:21 51°19.77 3°4.901 -999 1.088434 6.811268 -0.848668
2004-04-13 07:52:26 51°19.781 3°4.929 -999 1.051172 6.560492 -0.882377
2004-04-13 07:52:30 51°19.789 3°4.95 -999 1.014964 6.317589 -0.882377
2004-04-13 07:52:35 51°19.8 3°4.978 -999 1.014964 6.317589 -0.882377
2004-04-13 07:52:41 51°19.814 3°5.01 -999 0.971856 6.029398 -0.848668
2004-04-13 07:52:45 51°19.822 3°5.032 -999 1.003244 6.239479 -0.916087
2004-04-13 07:52:51 51°19.836 3°5.064 -999 1.07828 6.744003 -0.848668
2004-04-13 07:52:55 51°19.845 3°5.085 -999 0.984725 6.115967 -0.882377
2004-04-13 07:53:01 51°19.859 3°5.117 -999 1.009941 6.285053 -0.882377
2004-04-13 07:53:05 51°19.868 3°5.139 -999 1.009941 6.285053 -0.882377
2004-04-13 07:53:11 51°19.882 3°5.171 -999 1.071791 6.700808 -0.882377
2004-04-13 07:53:15 51°19.89 3°5.193 -999 1.056719 6.599524 -0.882377
2004-04-13 07:53:21 51°19.904 3°5.225 -999 1.103403 6.914581 -0.848668
2004-04-13 07:53:25 51°19.913 3°5.246 -999 1.066558 6.666092 -0.882377
2004-04-13 07:53:31 51°19.926 3°5.279 -999 1.007011 6.266136 -0.882377
2004-04-13 07:53:35 51°19.935 3°5.301 -999 1.007011 6.266136 -0.882377
2004-04-13 07:53:41 51°19.948 3°5.334 -999 1.11272 6.97791 -0.882377
2004-04-13 07:53:45 51°19.957 3°5.355 -999 0.96537 5.987957 -0.882377
2004-04-13 07:53:51 51°19.97 3°5.387 -999 1.01465 6.317953 -0.848668
2004-04-13 07:53:55 51°19.979 3°5.409 -999 1.077024 6.73773 -0.882377
2004-04-13 07:54:01 51°19.993 3°5.44 -999 1.105915 6.932917 -0.882377
2004-04-13 07:54:05 51°20.003 3°5.462 -999 1.105915 6.932917 -0.882377
2004-04-13 07:54:11 51°20.017 3°5.493 -999 0.926771 5.73173 -0.882377
2004-04-13 07:54:15 51°20.026 3°5.514 -999 1.080165 6.759459 -0.882377
2004-04-13 07:54:21 51°20.039 3°5.546 -999 1.12099 7.035586 -0.848668
2004-04-13 07:54:26 51°20.05 3°5.574 -999 1.018626 6.345759 -0.882377
2004-04-13 07:54:31 51°20.061 3°5.601 -999 1.100995 6.90056 -0.882377
2004-04-13 07:54:35 51°20.07 3°5.623 -999 1.100995 6.90056 -0.882377
2004-04-13 07:54:41 51°20.082 3°5.655 -999 1.066976 6.671194 -0.882377
2004-04-13 07:54:45 51°20.091 3°5.677 -999 1.02051 6.358916 -0.882377
2004-04-13 07:54:51 51°20.104 3°5.71 -999 1.051068 6.564491 -0.882377
2004-04-13 07:54:56 51°20.115 3°5.737 -999 1.005546 6.258971 -0.882377
2004-04-13 07:55:01 51°20.127 3°5.763 -999 1.00157 6.23253 -0.848668
2004-04-13 07:55:05 51°20.136 3°5.785 -999 1.00157 6.23253 -0.848668
2004-04-13 07:55:10 51°20.147 3°5.811 -999 0.990584 6.15926 -0.882377
2004-04-13 07:55:15 51°20.158 3°5.838 -999 1.088329 6.816557 -0.882377
2004-04-13 07:55:21 51°20.171 3°5.87 -999 1.04573 6.529644 -0.848668
2004-04-13 07:55:25 51°20.18 3°5.892 -999 1.091888 6.84104 -0.882377
2004-04-13 07:55:30 51°20.191 3°5.919 -999 1.08163 6.771884 -0.882377
2004-04-13 07:55:36 51°20.204 3°5.952 -999 1.08163 6.771884 -0.882377
2004-04-13 07:55:41 51°20.215 3°5.979 -999 1.052533 6.57596 -0.882377
2004-04-13 07:55:46 51°20.226 3°6.006 -999 0.964429 5.985473 -0.882377
2004-04-13 07:55:51 51°20.237 3°6.033 -999 1.05808 6.613745 -0.848668
2004-04-13 07:55:55 51°20.246 3°6.055 -999 1.015278 6.326182 -0.848668
2004-04-13 07:56:01 51°20.259 3°6.087 -999 1.0428 6.511311 -0.848668
2004-04-13 07:56:06 51°20.27 3°6.114 -999 1.0428 6.511311 -0.848668
2004-04-13 07:56:11 51°20.281 3°6.141 -999 1.011092 6.298614 -0.916087
2004-04-13 07:56:15 51°20.29 3°6.162 -999 0.979808 6.089048 -0.848668
2004-04-13 07:56:21 51°20.303 3°6.195 -999 1.080897 6.768704 -0.848668
2004-04-13 07:56:25 51°20.312 3°6.216 -999 1.072733 6.713718 -0.882377
2004-04-13 07:56:31 51°20.325 3°6.248 -999 1.066662 6.672994 -0.882377
2004-04-13 07:56:35 51°20.334 3°6.27 -999 1.066662 6.672994 -0.882377
2004-04-13 07:56:41 51°20.348 3°6.302 -999 1.082886 6.782795 -0.882377
2004-04-13 07:56:46 51°20.359 3°6.329 -999 1.073466 6.719318 -0.848668
2004-04-13 07:56:51 51°20.37 3°6.356 -999 1.037986 6.480517 -0.848668
2004-04-13 07:56:55 51°20.379 3°6.377 -999 1.008476 6.282398 -0.848668
2004-04-13 07:57:01 51°20.393 3°6.408 -999 0.967986 6.011583 -0.848668
2004-04-13 07:57:05 51°20.403 3°6.427 -999 0.967986 6.011583 -0.848668
2004-04-13 07:57:11 51°20.419 3°6.457 -999 0.952922 5.911074 -0.882377
2004-04-13 07:57:15 51°20.429 3°6.476 -999 1.045102 6.529357 -0.882377
2004-04-13 07:57:21 51°20.446 3°6.504 -999 0.890062 5.493299 -0.882377
2004-04-13 07:57:25 51°20.456 3°6.524 -999 0.987969 6.145959 -0.848668
2004-04-13 07:57:31 51°20.472 3°6.552 -999 1.106753 6.945937 -0.882377
2004-04-13 07:57:35 51°20.483 3°6.571 -999 1.106753 6.945937 -0.882377
2004-04-13 07:57:41 51°20.499 3°6.599 -999 1.015592 6.331488 -0.848668
2004-04-13 07:57:46 51°20.512 3°6.623 -999 1.144966 7.205229 -0.882377
2004-04-13 07:57:51 51°20.525 3°6.647 -999 1.0518 6.575209 -0.882377
2004-04-13 07:57:55 51°20.536 3°6.666 -999 1.063732 6.655841 -0.848668
2004-04-13 07:58:00 51°20.549 3°6.691 -999 1.057347 6.612799 -0.916087
2004-04-13 07:58:05 51°20.563 3°6.715 -999 1.057347 6.612799 -0.916087
2004-04-13 07:58:11 51°20.579 3°6.743 -999 1.044579 6.527219 -0.882377
2004-04-13 07:58:15 51°20.589 3°6.763 -999 0.991944 6.173797 -0.882377
2004-04-13 07:58:21 51°20.606 3°6.791 -999 1.023649 6.386856 -0.916087
2004-04-13 07:58:26 51°20.619 3°6.816 -999 1.105392 6.938425 -0.848668
2004-04-13 07:58:31 51°20.632 3°6.84 -999 1.039033 6.490732 -0.882377
2004-04-13 07:58:35 51°20.643 3°6.859 -999 1.039033 6.490732 -0.882377
2004-04-13 07:58:41 51°20.659 3°6.888 -999 1.070849 6.705384 -0.882377
2004-04-13 07:58:45 51°20.669 3°6.907 -999 1.127272 7.087367 -0.848668
2004-04-13 07:58:51 51°20.685 3°6.937 -999 0.956374 5.937213 -0.882377
2004-04-13 07:58:56 51°20.698 3°6.961 -999 0.970601 6.032408 -0.882377
2004-04-13 07:59:01 51°20.711 3°6.986 -999 1.052115 6.579793 -0.882377
2004-04-13 07:59:06 51°20.725 3°7.01 -999 1.075559 6.73817 -0.882377
2004-04-13 07:59:10 51°20.735 3°7.029 -999 1.075559 6.73817 -0.882377
2004-04-13 07:59:15 51°20.749 3°7.053 -999 0.963801 5.987526 -0.848668
2004-04-13 07:59:21 51°20.765 3°7.082 -999 1.087701 6.820656 -0.882377
2004-04-13 07:59:25 51°20.775 3°7.101 -999 0.98619 6.137653 -0.848668
2004-04-13 07:59:31 51°20.792 3°7.13 -999 1.098483 6.894034 -0.848668
2004-04-13 07:59:35 51°20.803 3°7.149 -999 1.04751 6.55005 -0.848668
2004-04-13 07:59:41 51°20.819 3°7.178 -999 1.04751 6.55005 -0.848668
2004-04-13 07:59:46 51°20.832 3°7.202 -999 1.049184 6.561547 -0.882377
2004-04-13 07:59:51 51°20.846 3°7.226 -999 0.934511 5.793039 -0.882377
2004-04-13 07:59:55 51°20.856 3°7.245 -999 1.03673 6.477987 -0.848668
2004-04-13 08:00:01 51°20.872 3°7.274 -999 1.070221 6.70399 -0.882377
2004-04-13 08:00:05 51°20.882 3°7.294 -999 0.950934 5.903104 -0.882377
2004-04-13 08:00:11 51°20.898 3°7.324 -999 0.950934 5.903104 -0.882377
2004-04-13 08:00:15 51°20.908 3°7.343 -999 1.134601 7.140236 -0.882377
2004-04-13 08:00:21 51°20.924 3°7.373 -999 1.087806 6.823369 -0.882377
2004-04-13 08:00:26 51°20.937 3°7.397 -999 0.949679 5.895298 -0.882377
2004-04-13 08:00:31 51°20.95 3°7.421 -999 0.982633 6.115821 -0.848668
2004-04-13 08:00:35 51°20.961 3°7.44 -999 0.982633 6.115821 -0.848668
2004-04-13 08:00:41 51°20.977 3°7.469 -999 1.148945 7.238868 -0.882377
2004-04-13 08:00:46 51°20.991 3°7.493 -999 1.059859 6.635577 -0.848668
2004-04-13 08:00:51 51°21.004 3°7.517 -999 0.988387 6.154885 -0.848668
2004-04-13 08:00:55 51°21.014 3°7.536 -999 1.081735 6.783652 -0.882377
2004-04-13 08:01:01 51°21.03 3°7.565 -999 1.001989 6.246532 -0.882377
2004-04-13 08:01:05 51°21.04 3°7.585 -999 1.001989 6.246532 -0.882377
2004-04-13 08:01:11 51°21.056 3°7.614 -999 1.193763 7.545005 -0.882377
2004-04-13 08:01:15 51°21.066 3°7.633 -999 1.123922 7.069958 -0.848668
2004-04-13 08:01:21 51°21.083 3°7.662 -999 0.974054 6.059854 -0.916087
2004-04-13 08:01:26 51°21.096 3°7.686 -999 1.009314 6.296434 -0.882377
2004-04-13 08:01:31 51°21.11 3°7.71 -999 1.129052 7.105356 -0.882377
2004-04-13 08:01:35 51°21.12 3°7.729 -999 1.129052 7.105356 -0.882377
2004-04-13 08:01:41 51°21.136 3°7.758 -999 1.082258 6.788632 -0.882377
2004-04-13 08:01:46 51°21.149 3°7.782 -999 0.919031 5.693065 -0.848668
2004-04-13 08:01:51 51°21.161 3°7.808 -999 1.133868 7.138643 -0.882377
2004-04-13 08:01:55 51°21.171 3°7.829 -999 1.125388 7.081177 -0.882377
2004-04-13 08:02:01 51°21.185 3°7.86 -999 0.997804 6.22017 -0.882377
2004-04-13 08:02:05 51°21.193 3°7.882 -999 0.997804 6.22017 -0.882377
2004-04-13 08:02:11 51°21.206 3°7.914 -999 1.109894 6.976419 -0.882377
2004-04-13 08:02:15 51°21.214 3°7.936 -999 1.027103 6.417397 -0.882377
2004-04-13 08:02:21 51°21.227 3°7.968 -999 0.949679 5.898379 -0.882377
2004-04-13 08:02:26 51°21.238 3°7.995 -999 0.983574 6.12553 -0.848668
2004-04-13 08:02:31 51°21.249 3°8.022 -999 0.997595 6.219883 -0.848668
2004-04-13 08:02:35 51°21.258 3°8.043 -999 1.041126 6.512898 -0.848668
2004-04-13 08:02:41 51°21.273 3°8.075 -999 1.041126 6.512898 -0.848668
2004-04-13 08:02:46 51°21.284 3°8.102 -999 1.057138 6.621004 -0.848668
2004-04-13 08:02:51 51°21.295 3°8.128 -999 1.086236 6.817874 -0.848668
2004-04-13 08:02:55 51°21.305 3°8.149 -999 1.006802 6.282644 -0.916087
2004-04-13 08:03:01 51°21.319 3°8.181 -999 1.097541 6.894977 -0.848668
2004-04-13 08:03:05 51°21.328 3°8.203 -999 1.051173 6.581718 -0.916087
2004-04-13 08:03:11 51°21.341 3°8.235 -999 1.051173 6.581718 -0.916087
2004-04-13 08:03:15 51°21.349 3°8.257 -999 1.071477 6.718945 -0.882377
2004-04-13 08:03:21 51°21.363 3°8.289 -999 1.008372 6.293808 -0.882377
2004-04-13 08:03:26 51°21.374 3°8.316 -999 0.996339 6.21308 -0.848668
2004-04-13 08:03:31 51°21.386 3°8.343 -999 1.005233 6.272918 -0.882377
2004-04-13 08:03:35 51°21.395 3°8.364 -999 1.069279 6.704748 -0.882377
2004-04-13 08:03:41 51°21.41 3°8.397 -999 1.069279 6.704748 -0.882377
2004-04-13 08:03:46 51°21.421 3°8.424 -999 1.069489 6.706382 -0.882377
2004-04-13 08:03:51 51°21.433 3°8.451 -999 1.096808 6.891366 -0.848668
2004-04-13 08:03:55 51°21.442 3°8.472 -999 1.049708 6.573123 -0.882377
2004-04-13 08:04:01 51°21.456 3°8.504 -999 0.992572 6.188807 -0.882377
2004-04-13 08:04:05 51°21.465 3°8.526 -999 0.992572 6.188807 -0.882377
2004-04-13 08:04:11 51°21.479 3°8.558 -999 1.013395 6.328919 -0.882377
2004-04-13 08:04:15 51°21.489 3°8.58 -999 1.027521 6.424308 -0.882377
2004-04-13 08:04:21 51°21.502 3°8.613 -999 0.991108 6.17948 -0.882377
2004-04-13 08:04:26 51°21.512 3°8.64 -999 0.994142 6.200153 -0.882377
2004-04-13 08:04:31 51°21.522 3°8.668 -999 1.116175 7.024179 -0.848668
2004-04-13 08:04:35 51°21.531 3°8.69 -999 1.116175 7.024179 -0.848668
2004-04-13 08:04:41 51°21.543 3°8.724 -999 0.977716 6.090144 -0.848668
2004-04-13 08:04:46 51°21.552 3°8.752 -999 1.049394 6.572616 -0.882377
2004-04-13 08:04:51 51°21.562 3°8.78 -999 1.054417 6.606636 -0.882377
2004-04-13 08:04:55 51°21.57 3°8.802 -999 1.090423 6.850581 -0.882377
2004-04-13 08:05:01 51°21.582 3°8.836 -999 1.035265 6.477857 -0.848668
2004-04-13 08:05:05 51°21.59 3°8.859 -999 1.035265 6.477857 -0.848668
2004-04-13 08:05:11 51°21.601 3°8.892 -999 1.122561 7.06881 -0.848668
2004-04-13 08:05:15 51°21.609 3°8.915 -999 1.01486 6.340846 -0.882377
2004-04-13 08:05:21 51°21.621 3°8.949 -999 1.060592 6.649537 -0.916087
2004-04-13 08:05:26 51°21.631 3°8.977 -999 1.052638 6.596134 -0.848668
2004-04-13 08:05:31 51°21.641 3°9.004 -999 0.972485 6.056964 -0.882377
2004-04-13 08:05:35 51°21.649 3°9.027 -999 0.972485 6.056964 -0.882377
2004-04-13 08:05:41 51°21.662 3°9.06 -999 1.080165 6.782568 -0.882377
2004-04-13 08:05:46 51°21.672 3°9.087 -999 1.035998 6.48428 -0.882377
2004-04-13 08:05:51 51°21.682 3°9.115 -999 0.942357 5.855782 -0.882377
2004-04-13 08:05:56 51°21.693 3°9.142 -999 0.939951 5.839702 -0.882377
2004-04-13 08:06:01 51°21.703 3°9.17 -999 1.073048 6.735064 -0.882377
2004-04-13 08:06:06 51°21.713 3°9.198 -999 1.027208 6.425661 -0.882377
2004-04-13 08:06:11 51°21.723 3°9.225 -999 1.027208 6.425661 -0.882377
2004-04-13 08:06:15 51°21.732 3°9.247 -999 1.046882 6.558456 -0.882377
2004-04-13 08:06:21 51°21.744 3°9.281 -999 1.074304 6.744115 -0.882377
2004-04-13 08:06:25 51°21.752 3°9.303 -999 0.943926 5.867134 -0.848668
2004-04-13 08:06:31 51°21.764 3°9.336 -999 1.057557 6.631201 -0.882377
2004-04-13 08:06:35 51°21.772 3°9.359 -999 1.056197 6.622225 -0.882377
2004-04-13 08:06:41 51°21.784 3°9.392 -999 1.056197 6.622225 -0.882377
2004-04-13 08:06:46 51°21.794 3°9.42 -999 0.993828 6.202102 -0.882377
2004-04-13 08:06:51 51°21.805 3°9.448 -999 1.014023 6.338116 -0.882377
2004-04-13 08:06:55 51°21.813 3°9.47 -999 0.964639 6.006747 -0.882377
2004-04-13 08:07:01 51°21.825 3°9.503 -999 1.066349 6.691619 -0.848668
2004-04-13 08:07:05 51°21.833 3°9.525 -999 1.066349 6.691619 -0.848668
2004-04-13 08:07:11 51°21.846 3°9.559 -999 1.013081 6.332295 -0.882377
2004-04-13 08:07:15 51°21.854 3°9.581 -999 1.078386 6.773517 -0.848668
2004-04-13 08:07:21 51°21.866 3°9.615 -999 0.937859 5.828201 -0.882377
2004-04-13 08:07:26 51°21.876 3°9.642 -999 1.002094 6.259093 -0.882377
2004-04-13 08:07:31 51°21.886 3°9.67 -999 1.051382 6.591537 -0.882377
2004-04-13 08:07:35 51°21.894 3°9.692 -999 1.051382 6.591537 -0.882377
2004-04-13 08:07:41 51°21.907 3°9.726 -999 1.057243 6.63125 -0.882377
2004-04-13 08:07:46 51°21.917 3°9.753 -999 1.045417 6.551676 -0.848668
2004-04-13 08:07:51 51°21.927 3°9.781 -999 1.030347 6.45009 -0.882377
2004-04-13 08:07:55 51°21.936 3°9.805 -999 1.026684 6.425606 -0.882377
2004-04-13 08:08:01 51°21.949 3°9.841 -999 1.065198 6.685912 -0.882377
2004-04-13 08:08:05 51°21.957 3°9.864 -999 1.065198 6.685912 -0.882377
2004-04-13 08:08:11 51°21.969 3°9.9 -999 1.059964 6.650626 -0.848668
2004-04-13 08:08:15 51°21.976 3°9.923 -999 1.095552 6.891761 -0.882377
2004-04-13 08:08:21 51°21.987 3°9.956 -999 0.954073 5.938218 -0.916087
2004-04-13 08:08:26 51°21.996 3°9.984 -999 1.055987 6.624172 -0.882377
2004-04-13 08:08:31 51°22.004 3°10.012 -999 1.051068 6.59125 -0.848668
2004-04-13 08:08:35 51°22.011 3°10.033 -999 1.051068 6.59125 -0.848668
2004-04-13 08:08:41 51°22.021 3°10.065 -999 1.060906 6.658087 -0.882377
2004-04-13 08:08:46 51°22.03 3°10.093 -999 0.998746 6.238927 -0.848668
2004-04-13 08:08:51 51°22.039 3°10.121 -999 1.014337 6.344071 -0.882377
2004-04-13 08:08:55 51°22.046 3°10.144 -999 0.915894 5.684235 -0.882377
2004-04-13 08:09:01 51°22.057 3°10.178 -999 1.032231 6.465123 -0.848668
2004-04-13 08:09:05 51°22.064 3°10.201 -999 1.032231 6.465123 -0.848668
2004-04-13 08:09:11 51°22.075 3°10.235 -999 1.008895 6.30805 -0.848668
2004-04-13 08:09:15 51°22.082 3°10.257 -999 1.029615 6.447896 -0.916087
2004-04-13 08:09:21 51°22.092 3°10.292 -999 1.002827 6.267507 -0.882377
2004-04-13 08:09:26 51°22.1 3°10.321 -999 1.092412 6.872827 -0.882377
2004-04-13 08:09:31 51°22.107 3°10.351 -999 1.120468 7.063606 -0.882377
2004-04-13 08:09:35 51°22.111 3°10.375 -999 1.120468 7.063606 -0.882377
2004-04-13 08:09:41 51°22.119 3°10.411 -999 0.946436 5.889414 -0.882377
2004-04-13 08:09:45 51°22.123 3°10.436 -999 1.054836 6.618883 -0.882377
2004-04-13 08:09:51 51°22.13 3°10.472 -999 1.000106 6.250021 -0.848668
2004-04-13 08:09:55 51°22.135 3°10.497 -999 1.064779 6.686694 -0.882377
2004-04-13 08:10:01 51°22.141 3°10.534 -999 0.965894 6.020578 -0.882377
2004-04-13 08:10:06 51°22.147 3°10.565 -999 0.965894 6.020578 -0.882377
2004-04-13 08:10:11 51°22.153 3°10.596 -999 1.079328 6.785563 -0.848668
2004-04-13 08:10:16 51°22.159 3°10.626 -999 0.938905 5.840162 -0.848668
2004-04-13 08:10:21 51°22.164 3°10.656 -999 0.98347 6.139174 -0.882377
2004-04-13 08:10:25 51°22.169 3°10.681 -999 0.993514 6.2069 -0.882377
2004-04-13 08:10:31 51°22.176 3°10.718 -999 1.03087 6.458695 -0.882377
2004-04-13 08:10:35 51°22.18 3°10.742 -999 1.083515 6.815062 -0.882377
2004-04-13 08:10:41 51°22.187 3°10.779 -999 1.083515 6.815062 -0.882377
2004-04-13 08:10:45 51°22.191 3°10.804 -999 0.933466 5.804731 -0.848668
2004-04-13 08:10:51 51°22.198 3°10.84 -999 0.955747 5.954106 -0.882377
2004-04-13 08:10:55 51°22.203 3°10.865 -999 1.044475 6.551431 -0.848668
2004-04-13 08:11:01 51°22.21 3°10.902 -999 0.9297 5.780119 -0.882377
2004-04-13 08:11:06 51°22.215 3°10.932 -999 0.9297 5.780119 -0.882377
2004-04-13 08:11:11 51°22.221 3°10.963 -999 0.974473 6.080236 -0.882377
2004-04-13 08:11:15 51°22.226 3°10.987 -999 0.992887 6.204203 -0.848668
2004-04-13 08:11:21 51°22.233 3°11.024 -999 1.002408 6.26849 -0.882377
2004-04-13 08:11:26 51°22.239 3°11.054 -999 1.009105 6.313803 -0.848668
2004-04-13 08:11:31 51°22.245 3°11.085 -999 1.028778 6.44679 -0.882377
2004-04-13 08:11:35 51°22.25 3°11.109 -999 1.028778 6.44679 -0.882377
2004-04-13 08:11:41 51°22.257 3°11.145 -999 0.963593 6.008193 -0.882377
2004-04-13 08:11:46 51°22.262 3°11.176 -999 1.024278 6.416632 -0.848668
2004-04-13 08:11:51 51°22.268 3°11.207 -999 1.007849 6.306067 -0.882377
2004-04-13 08:11:55 51°22.273 3°11.231 -999 0.997072 6.233692 -0.882377
2004-04-13 08:12:01 51°22.28 3°11.268 -999 1.094506 6.892679 -0.882377
2004-04-13 08:12:06 51°22.286 3°11.298 -999 1.094506 6.892679 -0.882377
2004-04-13 08:12:11 51°22.292 3°11.329 -999 0.977088 6.099701 -0.882377
2004-04-13 08:12:15 51°22.296 3°11.353 -999 1.000734 6.25886 -0.882377
2004-04-13 08:12:21 51°22.304 3°11.39 -999 1.009628 6.318985 -0.882377
2004-04-13 08:12:26 51°22.309 3°11.421 -999 1.009419 6.317575 -0.882377
2004-04-13 08:12:30 51°22.314 3°11.445 -999 1.164442 7.369961 -0.848668
2004-04-13 08:12:35 51°22.32 3°11.476 -999 1.164442 7.369961 -0.848668
2004-04-13 08:12:41 51°22.327 3°11.513 -999 0.912338 5.666633 -0.916087
2004-04-13 08:12:46 51°22.333 3°11.543 -999 1.03108 6.464346 -0.848668
2004-04-13 08:12:51 51°22.339 3°11.574 -999 1.033382 6.480003 -0.882377
2004-04-13 08:12:55 51°22.344 3°11.598 -999 1.050022 6.592819 -0.882377
2004-04-13 08:13:01 51°22.351 3°11.635 -999 1.039766 6.523567 -0.882377
2004-04-13 08:13:06 51°22.357 3°11.666 -999 1.039766 6.523567 -0.882377
2004-04-13 08:13:11 51°22.363 3°11.697 -999 0.943194 5.873866 -0.848668
2004-04-13 08:13:15 51°22.368 3°11.721 -999 1.01486 6.355924 -0.916087
2004-04-13 08:13:21 51°22.374 3°11.759 -999 0.969137 6.04828 -0.848668
2004-04-13 08:13:26 51°22.38 3°11.79 -999 0.992677 6.206763 -0.882377
2004-04-13 08:13:31 51°22.384 3°11.821 -999 1.073781 6.75484 -0.848668
2004-04-13 08:13:35 51°22.387 3°11.847 -999 1.073781 6.75484 -0.848668
2004-04-13 08:13:41 51°22.392 3°11.884 -999 0.94832 5.908987 -0.848668
2004-04-13 08:13:46 51°22.397 3°11.916 -999 0.973427 6.077792 -0.882377
2004-04-13 08:13:51 51°22.401 3°11.947 -999 0.990271 6.191277 -0.848668
2004-04-13 08:13:56 51°22.405 3°11.979 -999 1.012035 6.338222 -0.882377
2004-04-13 08:14:01 51°22.409 3°12.01 -999 1.013186 6.34609 -0.882377
2004-04-13 08:14:06 51°22.414 3°12.042 -999 1.028987 6.45307 -0.882377
2004-04-13 08:14:11 51°22.418 3°12.074 -999 1.028987 6.45307 -0.882377
2004-04-13 08:14:15 51°22.421 3°12.099 -999 0.961291 5.997471 -0.882377
2004-04-13 08:14:21 51°22.427 3°12.137 -999 0.949052 5.915448 -0.848668
2004-04-13 08:14:26 51°22.43 3°12.169 -999 1.108952 6.995887 -0.848668
2004-04-13 08:14:31 51°22.435 3°12.201 -999 0.987028 6.170968 -0.916087
2004-04-13 08:14:35 51°22.438 3°12.226 -999 0.987028 6.170968 -0.916087
2004-04-13 08:14:41 51°22.443 3°12.264 -999 0.954805 5.954528 -0.848668
2004-04-13 08:14:45 51°22.446 3°12.289 -999 1.129471 7.136205 -0.882377
2004-04-13 08:14:51 51°22.452 3°12.327 -999 0.933152 5.809866 -0.882377
2004-04-13 08:14:55 51°22.455 3°12.353 -999 1.067605 6.716172 -0.848668
2004-04-13 08:15:01 51°22.46 3°12.391 -999 1.01915 6.388536 -0.848668
2004-04-13 08:15:06 51°22.464 3°12.422 -999 1.01915 6.388536 -0.848668
2004-04-13 08:15:11 51°22.468 3°12.454 -999 1.015593 6.364624 -0.882377
2004-04-13 08:15:15 51°22.471 3°12.479 -999 0.975519 6.094954 -0.848668
2004-04-13 08:15:21 51°22.476 3°12.517 -999 0.935035 5.823431 -0.882377
2004-04-13 08:15:25 51°22.48 3°12.543 -999 1.023859 6.421073 -0.882377
2004-04-13 08:15:30 51°22.484 3°12.574 -999 0.966208 6.032765 -0.882377
2004-04-13 08:15:35 51°22.488 3°12.606 -999 0.966208 6.032765 -0.882377
2004-04-13 08:15:41 51°22.493 3°12.644 -999 1.041336 6.539759 -0.882377
2004-04-13 08:15:46 51°22.497 3°12.675 -999 1.066873 6.712637 -0.882377
2004-04-13 08:15:51 51°22.501 3°12.707 -999 0.948529 5.914658 -0.882377
2004-04-13 08:15:55 51°22.504 3°12.732 -999 0.958467 5.981554 -0.882377
2004-04-13 08:16:01 51°22.509 3°12.769 -999 1.078072 6.789406 -0.882377
2004-04-13 08:16:06 51°22.513 3°12.801 -999 1.078072 6.789406 -0.882377
2004-04-13 08:16:11 51°22.518 3°12.832 -999 0.960873 5.998107 -0.882377
2004-04-13 08:16:15 51°22.521 3°12.857 -999 1.023859 6.422655 -0.882377
2004-04-13 08:16:21 51°22.526 3°12.894 -999 0.976461 6.10329 -0.882377
2004-04-13 08:16:25 51°22.53 3°12.918 -999 0.979286 6.122497 -0.848668
2004-04-13 08:16:30 51°22.536 3°12.949 -999 1.033696 6.489897 -0.882377
2004-04-13 08:16:35 51°22.541 3°12.98 -999 1.033696 6.489897 -0.882377
2004-04-13 08:16:41 51°22.548 3°13.016 -999 0.91192 5.670997 -0.882377
2004-04-13 08:16:46 51°22.553 3°13.047 -999 1.031813 6.47737 -0.882377
2004-04-13 08:16:51 51°22.559 3°13.077 -999 0.96171 6.00501 -0.848668
2004-04-13 08:16:55 51°22.563 3°13.102 -999 1.00063 6.267406 -0.882377
2004-04-13 08:17:01 51°22.57 3°13.138 -999 1.010256 6.332461 -0.848668
2004-04-13 08:17:06 51°22.575 3°13.169 -999 1.010256 6.332461 -0.848668
2004-04-13 08:17:11 51°22.581 3°13.199 -999 0.988806 6.187917 -0.848668
2004-04-13 08:17:15 51°22.585 3°13.224 -999 1.087388 6.855382 -0.882377
2004-04-13 08:17:21 51°22.592 3°13.26 -999 0.972381 6.077842 -0.882377
2004-04-13 08:17:25 51°22.596 3°13.285 -999 1.015697 6.369932 -0.882377
2004-04-13 08:17:31 51°22.603 3°13.322 -999 1.033173 6.488276 -0.882377
2004-04-13 08:17:36 51°22.608 3°13.352 -999 1.054522 6.633069 -0.916087
2004-04-13 08:17:41 51°22.614 3°13.383 -999 1.054522 6.633069 -0.916087
2004-04-13 08:17:46 51°22.619 3°13.414 -999 0.975519 6.09956 -0.848668
2004-04-13 08:17:51 51°22.624 3°13.445 -999 0.95491 5.961197 -0.848668
2004-04-13 08:17:55 51°22.629 3°13.469 -999 1.016639 6.377446 -0.848668
2004-04-13 08:18:01 51°22.636 3°13.505 -999 0.991527 6.208081 -0.848668
2004-04-13 08:18:06 51°22.641 3°13.536 -999 0.965162 6.030884 -0.882377
2004-04-13 08:18:11 51°22.647 3°13.566 -999 0.965162 6.030884 -0.882377
2004-04-13 08:18:15 51°22.651 3°13.59 -999 0.972067 6.077428 -0.848668
2004-04-13 08:18:21 51°22.658 3°13.627 -999 0.925621 5.765793 -0.882377
2004-04-13 08:18:25 51°22.663 3°13.652 -999 0.953341 5.952028 -0.848668
2004-04-13 08:18:31 51°22.669 3°13.688 -999 1.060593 6.676203 -0.882377
2004-04-13 08:18:35 51°22.674 3°13.712 -999 1.060593 6.676203 -0.882377
2004-04-13 08:18:41 51°22.68 3°13.749 -999 0.989748 6.197417 -0.882377
2004-04-13 08:18:46 51°22.686 3°13.78 -999 0.919137 5.723213 -0.882377
2004-04-13 08:18:51 51°22.691 3°13.811 -999 1.04615 6.578932 -0.882377
2004-04-13 08:18:55 51°22.696 3°13.835 -999 1.048871 6.597698 -0.848668
2004-04-13 08:19:01 51°22.702 3°13.871 -999 0.993619 6.224336 -0.882377
2004-04-13 08:19:06 51°22.708 3°13.902 -999 0.993619 6.224336 -0.882377
2004-04-13 08:19:11 51°22.713 3°13.932 -999 0.973113 6.086268 -0.848668
2004-04-13 08:19:15 51°22.718 3°13.956 -999 1.026266 6.445166 -0.882377
2004-04-13 08:19:21 51°22.725 3°13.993 -999 1.036731 6.5161 -0.882377
2004-04-13 08:19:25 51°22.729 3°14.017 -999 0.976252 6.1078 -0.848668
2004-04-13 08:19:31 51°22.735 3°14.054 -999 1.023127 6.424355 -0.882377
2004-04-13 08:19:35 51°22.74 3°14.079 -999 1.023127 6.424355 -0.882377
2004-04-13 08:19:41 51°22.746 3°14.115 -999 0.961605 6.009736 -0.882377
2004-04-13 08:19:45 51°22.75 3°14.139 -999 1.037987 6.525356 -0.848668
2004-04-13 08:19:51 51°22.757 3°14.176 -999 0.947378 5.914416 -0.882377
2004-04-13 08:19:55 51°22.761 3°14.2 -999 1.03401 6.498854 -0.882377
2004-04-13 08:20:01 51°22.768 3°14.236 -999 1.061744 6.687093 -0.882377
2004-04-13 08:20:06 51°22.774 3°14.267 -999 1.061744 6.687093 -0.882377
2004-04-13 08:20:11 51°22.78 3°14.297 -999 0.959931 5.999368 -0.882377
2004-04-13 08:20:16 51°22.786 3°14.327 -999 0.985145 6.169332 -0.882377
2004-04-13 08:20:21 51°22.791 3°14.357 -999 1.08362 6.836403 -0.848668
2004-04-13 08:20:25 51°22.796 3°14.381 -999 0.969451 6.063918 -0.848668
2004-04-13 08:20:30 51°22.801 3°14.412 -999 0.954178 5.961372 -0.882377
2004-04-13 08:20:35 51°22.806 3°14.443 -999 0.954178 5.961372 -0.882377
2004-04-13 08:20:41 51°22.813 3°14.479 -999 1.021662 6.416557 -0.882377
2004-04-13 08:20:45 51°22.817 3°14.503 -999 1.036627 6.518179 -0.916087
2004-04-13 08:20:51 51°22.824 3°14.54 -999 1.004397 6.300475 -0.882377
2004-04-13 08:20:55 51°22.828 3°14.564 -999 1.055465 6.646337 -0.882377
2004-04-13 08:21:01 51°22.835 3°14.6 -999 1.03108 6.481149 -0.848668
2004-04-13 08:21:05 51°22.839 3°14.624 -999 0.973008 6.089268 -0.848668
2004-04-13 08:21:11 51°22.846 3°14.661 -999 0.973008 6.089268 -0.848668
2004-04-13 08:21:15 51°22.85 3°14.686 -999 1.02815 6.461842 -0.882377
2004-04-13 08:21:21 51°22.857 3°14.722 -999 1.023127 6.428055 -0.882377
2004-04-13 08:21:25 51°22.861 3°14.747 -999 1.092517 6.899442 -0.882377
2004-04-13 08:21:31 51°22.868 3°14.783 -999 0.965267 6.037938 -0.882377
2004-04-13 08:21:35 51°22.872 3°14.808 -999 1.007954 6.326175 -0.882377
2004-04-13 08:21:41 51°22.879 3°14.844 -999 1.007954 6.326175 -0.882377
2004-04-13 08:21:46 51°22.884 3°14.875 -999 1.058814 6.670935 -0.882377
2004-04-13 08:21:51 51°22.889 3°14.905 -999 1.057872 6.664649 -0.848668
2004-04-13 08:21:55 51°22.893 3°14.929 -999 1.033069 6.496538 -0.848668
2004-04-13 08:22:01 51°22.9 3°14.966 -999 1.087912 6.869103 -0.916087
2004-04-13 08:22:05 51°22.903 3°14.991 -999 1.087912 6.869103 -0.916087
2004-04-13 08:22:11 51°22.91 3°15.028 -999 0.955015 5.970042 -0.882377
2004-04-13 08:22:15 51°22.914 3°15.052 -999 1.035371 6.512566 -0.882377
2004-04-13 08:22:21 51°22.92 3°15.088 -999 1.05536 6.648582 -0.848668
2004-04-13 08:22:26 51°22.926 3°15.119 -999 0.915476 5.705083 -0.882377
2004-04-13 08:22:31 51°22.931 3°15.149 -999 1.043952 6.571498 -0.848668
2004-04-13 08:22:35 51°22.935 3°15.174 -999 1.043952 6.571498 -0.848668
2004-04-13 08:22:41 51°22.942 3°15.211 -999 1.005443 6.31097 -0.848668
2004-04-13 08:22:46 51°22.947 3°15.241 -999 1.005966 6.314818 -0.848668
2004-04-13 08:22:51 51°22.953 3°15.271 -999 1.024069 6.437395 -0.882377
2004-04-13 08:22:56 51°22.958 3°15.301 -999 1.023546 6.434065 -0.848668
2004-04-13 08:23:01 51°22.964 3°15.332 -999 0.99477 6.239794 -0.882377
2004-04-13 08:23:05 51°22.968 3°15.356 -999 0.99477 6.239794 -0.882377
2004-04-13 08:23:11 51°22.974 3°15.393 -999 1.001572 6.285842 -0.882377
2004-04-13 08:23:16 51°22.98 3°15.423 -999 1.03129 6.48705 -0.848668
2004-04-13 08:23:21 51°22.984 3°15.454 -999 0.984622 6.171796 -0.882377
2004-04-13 08:23:25 51°22.989 3°15.478 -999 0.907946 5.656505 -0.882377
2004-04-13 08:23:31 51°22.995 3°15.514 -999 1.035476 6.516172 -0.882377
2004-04-13 08:23:35 51°23 3°15.538 -999 1.035476 6.516172 -0.882377
2004-04-13 08:23:41 51°23.007 3°15.575 -999 0.963384 6.029232 -0.882377
2004-04-13 08:23:46 51°23.012 3°15.605 -999 0.979077 6.135198 -0.882377
2004-04-13 08:23:51 51°23.018 3°15.635 -999 1.036522 6.523912 -0.848668
2004-04-13 08:23:56 51°23.022 3°15.666 -999 1.007954 6.330656 -0.882377
2004-04-13 08:24:01 51°23.027 3°15.697 -999 1.022709 6.43062 -0.882377
2004-04-13 08:24:06 51°23.03 3°15.728 -999 1.022709 6.43062 -0.882377
2004-04-13 08:24:11 51°23.034 3°15.759 -999 1.036103 6.521503 -0.916087
2004-04-13 08:24:15 51°23.036 3°15.783 -999 1.062686 6.70209 -0.882377
2004-04-13 08:24:21 51°23.04 3°15.82 -999 1.016849 6.391469 -0.882377
2004-04-13 08:24:26 51°23.043 3°15.852 -999 0.98776 6.195018 -0.848668
2004-04-13 08:24:31 51°23.047 3°15.883 -999 1.038824 6.540819 -0.882377
2004-04-13 08:24:36 51°23.05 3°15.913 -999 1.038824 6.540819 -0.882377
2004-04-13 08:24:41 51°23.053 3°15.944 -999 0.953237 5.962694 -0.848668
2004-04-13 08:24:46 51°23.057 3°15.975 -999 0.988179 6.198559 -0.882377
2004-04-13 08:24:51 51°23.06 3°16.006 -999 1.069699 6.751218 -0.882377
2004-04-13 08:24:55 51°23.062 3°16.03 -999 0.963802 6.034535 -0.916087
2004-04-13 08:25:01 51°23.066 3°16.068 -999 1.010884 6.352673 -0.882377
2004-04-13 08:25:06 51°23.07 3°16.099 -999 0.965267 6.044802 -0.882377
2004-04-13 08:25:11 51°23.073 3°16.129 -999 0.965267 6.044802 -0.882377
2004-04-13 08:25:15 51°23.076 3°16.154 -999 1.01078 6.352383 -0.882377
2004-04-13 08:25:21 51°23.079 3°16.191 -999 1.05693 6.665498 -0.848668
2004-04-13 08:25:26 51°23.083 3°16.221 -999 0.93765 5.859517 -0.882377
2004-04-13 08:25:31 51°23.086 3°16.252 -999 1.073676 6.779733 -0.882377
2004-04-13 08:25:36 51°23.089 3°16.283 -999 1.073676 6.779733 -0.882377
2004-04-13 08:25:41 51°23.093 3°16.313 -999 0.957735 5.994949 -0.882377
2004-04-13 08:25:45 51°23.095 3°16.338 -999 1.038615 6.541879 -0.882377
2004-04-13 08:25:51 51°23.1 3°16.375 -999 0.952086 5.957207 -0.882377
2004-04-13 08:25:55 51°23.102 3°16.399 -999 1.06635 6.730544 -0.882377
2004-04-13 08:26:01 51°23.106 3°16.436 -999 1.019779 6.414689 -0.882377
2004-04-13 08:26:05 51°23.109 3°16.461 -999 1.019779 6.414689 -0.882377
2004-04-13 08:26:11 51°23.113 3°16.498 -999 0.947902 5.929533 -0.848668
2004-04-13 08:26:15 51°23.116 3°16.522 -999 0.984517 6.176685 -0.848668
2004-04-13 08:26:21 51°23.12 3°16.559 -999 1.091994 6.906228 -0.848668
2004-04-13 08:26:25 51°23.123 3°16.584 -999 1.013396 6.372296 -0.882377
2004-04-13 08:26:31 51°23.127 3°16.621 -999 1.020407 6.420002 -0.882377
2004-04-13 08:26:35 51°23.129 3°16.646 -999 1.020407 6.420002 -0.882377
2004-04-13 08:26:41 51°23.133 3°16.683 -999 0.991213 6.22264 -0.882377
2004-04-13 08:26:45 51°23.136 3°16.708 -999 1.037778 6.53803 -0.882377
2004-04-13 08:26:51 51°23.14 3°16.745 -999 0.995085 6.249118 -0.882377
2004-04-13 08:26:55 51°23.142 3°16.769 -999 1.007431 6.332647 -0.848668
2004-04-13 08:27:01 51°23.147 3°16.806 -999 1.040708 6.558571 -0.882377
2004-04-13 08:27:05 51°23.149 3°16.831 -999 1.040708 6.558571 -0.882377
2004-04-13 08:27:11 51°23.154 3°16.869 -999 0.992783 6.23407 -0.882377